Station Historical Data
Daily Summary for March 15, 2011 Units:  Both    English   Metric
« Previous Day
Next Day »
Daily Weekly Monthly Yearly Custom
  High: Low: Average:
Temperature: 54.7 °F /  12.6 °C 42.8 °F /  6 °C 46.9 °F /  8.3 °C
Dew Point: 53.7 °F /  12.1 °C 38.2 °F /  3.4 °C 43.2 °F /  6.2 °C
Humidity: 97% 75% 87%
Wind Speed: 16.0mph /  25.7km/h - 5.7mph /  9.2km/h
Wind Gust: 18.0mph /  29km/h - -
Wind- - WSW
Pressure: 30.22 in /  1023.2 hPa 29.99 in /  1015.5 hPa -
Precipitation: 0.01 in /  0.25 mm    
Historical Graphs
 
 
Tabular Data for March 15, 2011
Time Temperature Dew Point Pressure Wind Wind Speed Wind Gust Humidity Rainfall Rate (Hourly) Conditions
00:00 54.3 °F /  12.4 °C 53.2 °F /  11.8 °C 30.02in /  1016.5hPa SE 4.0mph /  6.4km/h 8.0mph /  12.9km/h 96% 0.00in /  0mm
00:01 54.3 °F /  12.4 °C 53.2 °F /  11.8 °C 30.02in /  1016.5hPa SE 6.0mph /  9.7km/h 8.0mph /  12.9km/h 96% 0.00in /  0mm
00:05 54.3 °F /  12.4 °C 53.2 °F /  11.8 °C 30.02in /  1016.5hPa SE 8.0mph /  12.9km/h 8.0mph /  12.9km/h 96% 0.00in /  0mm
00:07 54.3 °F /  12.4 °C 53.2 °F /  11.8 °C 30.02in /  1016.5hPa SSE 6.0mph /  9.7km/h 8.0mph /  12.9km/h 96% 0.00in /  0mm
00:11 54.3 °F /  12.4 °C 53.2 °F /  11.8 °C 30.02in /  1016.5hPa SE 8.0mph /  12.9km/h 9.0mph /  14.5km/h 96% 0.00in /  0mm
00:12 54.3 °F /  12.4 °C 53.2 °F /  11.8 °C 30.02in /  1016.5hPa SSE 8.0mph /  12.9km/h 10.0mph /  16.1km/h 96% 0.00in /  0mm
00:16 54.3 °F /  12.4 °C 53.2 °F /  11.8 °C 30.01in /  1016.1hPa SE 9.0mph /  14.5km/h 13.0mph /  20.9km/h 96% 0.00in /  0mm
00:17 54.3 °F /  12.4 °C 53.2 °F /  11.8 °C 30.01in /  1016.1hPa SE 6.0mph /  9.7km/h 13.0mph /  20.9km/h 96% 0.00in /  0mm
00:22 54.3 °F /  12.4 °C 53.2 °F /  11.8 °C 30.01in /  1016.1hPa SE 4.0mph /  6.4km/h 10.0mph /  16.1km/h 96% 0.00in /  0mm
00:27 54.3 °F /  12.4 °C 53.2 °F /  11.8 °C 30.01in /  1016.1hPa SE 5.0mph /  8km/h 10.0mph /  16.1km/h 96% 0.00in /  0mm
00:28 54.3 °F /  12.4 °C 53.2 °F /  11.8 °C 30.01in /  1016.1hPa SE 5.0mph /  8km/h 10.0mph /  16.1km/h 96% 0.00in /  0mm
00:29 54.3 °F /  12.4 °C 53.2 °F /  11.8 °C 30.01in /  1016.1hPa SE 8.0mph /  12.9km/h 11.0mph /  17.7km/h 96% 0.00in /  0mm
00:32 54.2 °F /  12.3 °C 53.1 °F /  11.7 °C 30.01in /  1016.1hPa SE 8.0mph /  12.9km/h 12.0mph /  19.3km/h 96% 0.00in /  0mm
00:33 54.2 °F /  12.3 °C 53.1 °F /  11.7 °C 30.01in /  1016.1hPa SSE 7.0mph /  11.3km/h 12.0mph /  19.3km/h 96% 0.00in /  0mm
00:34 54.2 °F /  12.3 °C 53.1 °F /  11.7 °C 30.01in /  1016.1hPa ESE 8.0mph /  12.9km/h 12.0mph /  19.3km/h 96% 0.00in /  0mm
00:39 54.3 °F /  12.4 °C 53.2 °F /  11.8 °C 30.01in /  1016.1hPa SE 8.0mph /  12.9km/h 12.0mph /  19.3km/h 96% 0.00in /  0mm
00:40 54.3 °F /  12.4 °C 53.2 °F /  11.8 °C 30.01in /  1016.1hPa SSE 5.0mph /  8km/h 12.0mph /  19.3km/h 96% 0.00in /  0mm
00:44 54.3 °F /  12.4 °C 53.2 °F /  11.8 °C 30.01in /  1016.1hPa SE 9.0mph /  14.5km/h 10.0mph /  16.1km/h 96% 0.00in /  0mm
00:45 54.3 °F /  12.4 °C 53.2 °F /  11.8 °C 30.01in /  1016.1hPa SSE 7.0mph /  11.3km/h 10.0mph /  16.1km/h 96% 0.00in /  0mm
00:49 54.3 °F /  12.4 °C 53.2 °F /  11.8 °C 30.01in /  1016.1hPa SSE 6.0mph /  9.7km/h 10.0mph /  16.1km/h 96% 0.00in /  0mm
00:50 54.3 °F /  12.4 °C 53.2 °F /  11.8 °C 30.01in /  1016.1hPa SSE 6.0mph /  9.7km/h 10.0mph /  16.1km/h 96% 0.00in /  0mm
00:51 54.3 °F /  12.4 °C 53.2 °F /  11.8 °C 30.01in /  1016.1hPa SE 11.0mph /  17.7km/h 13.0mph /  20.9km/h 96% 0.00in /  0mm
00:55 54.4 °F /  12.4 °C 53.3 °F /  11.8 °C 30.01in /  1016.1hPa SSE 9.0mph /  14.5km/h 10.0mph /  16.1km/h 96% 0.00in /  0mm
00:56 54.4 °F /  12.4 °C 53.3 °F /  11.8 °C 30.01in /  1016.1hPa SSE 10.0mph /  16.1km/h 11.0mph /  17.7km/h 96% 0.00in /  0mm
00:57 54.3 °F /  12.4 °C 53.2 °F /  11.8 °C 30.01in /  1016.1hPa SE 8.0mph /  12.9km/h 11.0mph /  17.7km/h 96% 0.00in /  0mm
01:00 54.3 °F /  12.4 °C 53.2 °F /  11.8 °C 30.01in /  1016.1hPa SSE 10.0mph /  16.1km/h 13.0mph /  20.9km/h 96% 0.00in /  0mm
01:05 54.4 °F /  12.4 °C 53.3 °F /  11.8 °C 30.01in /  1016.1hPa SSE 13.0mph /  20.9km/h 15.0mph /  24.1km/h 96% 0.00in /  0mm
01:10 54.4 °F /  12.4 °C 53.3 °F /  11.8 °C 30.00in /  1015.8hPa SSE 16.0mph /  25.7km/h 16.0mph /  25.7km/h 96% 0.00in /  0mm
01:11 54.4 °F /  12.4 °C 53.3 °F /  11.8 °C 30.00in /  1015.8hPa SSE 11.0mph /  17.7km/h 16.0mph /  25.7km/h 96% 0.00in /  0mm
01:16 54.4 °F /  12.4 °C 53.3 °F /  11.8 °C 30.00in /  1015.8hPa SSE 11.0mph /  17.7km/h 13.0mph /  20.9km/h 96% 0.00in /  0mm
01:21 54.5 °F /  12.5 °C 53.4 °F /  11.9 °C 30.00in /  1015.8hPa SSE 6.0mph /  9.7km/h 12.0mph /  19.3km/h 96% 0.00in /  0mm
01:26 54.5 °F /  12.5 °C 53.4 °F /  11.9 °C 30.00in /  1015.8hPa South 8.0mph /  12.9km/h 9.0mph /  14.5km/h 96% 0.00in /  0mm
01:27 54.4 °F /  12.4 °C 53.3 °F /  11.8 °C 30.00in /  1015.8hPa SSE 8.0mph /  12.9km/h 9.0mph /  14.5km/h 96% 0.00in /  0mm
01:28 54.5 °F /  12.5 °C 53.4 °F /  11.9 °C 30.00in /  1015.8hPa SSE 9.0mph /  14.5km/h 10.0mph /  16.1km/h 96% 0.00in /  0mm
01:32 54.4 °F /  12.4 °C 53.3 °F /  11.8 °C 30.00in /  1015.8hPa South 6.0mph /  9.7km/h 11.0mph /  17.7km/h 96% 0.00in /  0mm
01:34 54.4 °F /  12.4 °C 53.3 °F /  11.8 °C 30.00in /  1015.8hPa SSE 12.0mph /  19.3km/h 13.0mph /  20.9km/h 96% 0.00in /  0mm
01:37 54.5 °F /  12.5 °C 53.4 °F /  11.9 °C 30.00in /  1015.8hPa South 4.0mph /  6.4km/h 13.0mph /  20.9km/h 96% 0.00in /  0mm
01:38 54.4 °F /  12.4 °C 53.3 °F /  11.8 °C 30.00in /  1015.8hPa SSE 5.0mph /  8km/h 11.0mph /  17.7km/h 96% 0.00in /  0mm
01:39 54.4 °F /  12.4 °C 53.3 °F /  11.8 °C 30.00in /  1015.8hPa SSE 8.0mph /  12.9km/h 11.0mph /  17.7km/h 96% 0.00in /  0mm
01:43 54.4 °F /  12.4 °C 53.3 °F /  11.8 °C 30.00in /  1015.8hPa SSE 11.0mph /  17.7km/h 11.0mph /  17.7km/h 96% 0.00in /  0mm
01:44 54.4 °F /  12.4 °C 53.3 °F /  11.8 °C 30.00in /  1015.8hPa SSE 12.0mph /  19.3km/h 12.0mph /  19.3km/h 96% 0.00in /  0mm
01:49 54.4 °F /  12.4 °C 53.3 °F /  11.8 °C 30.00in /  1015.8hPa SSE 12.0mph /  19.3km/h 14.0mph /  22.5km/h 96% 0.00in /  0mm
01:54 54.4 °F /  12.4 °C 53.6 °F /  12 °C 30.00in /  1015.8hPa SSW 7.0mph /  11.3km/h 10.0mph /  16.1km/h 97% 0.00in /  0mm
01:56 54.4 °F /  12.4 °C 53.6 °F /  12 °C 30.00in /  1015.8hPa South 9.0mph /  14.5km/h 14.0mph /  22.5km/h 97% 0.00in /  0mm
01:58 54.5 °F /  12.5 °C 53.7 °F /  12.1 °C 30.00in /  1015.8hPa South 8.0mph /  12.9km/h 12.0mph /  19.3km/h 97% 0.00in /  0mm
02:00 54.5 °F /  12.5 °C 53.7 °F /  12.1 °C 30.00in /  1015.8hPa SE 10.0mph /  16.1km/h 10.0mph /  16.1km/h 97% 0.00in /  0mm
02:01 54.4 °F /  12.4 °C 53.6 °F /  12 °C 30.00in /  1015.8hPa SSW 7.0mph /  11.3km/h 11.0mph /  17.7km/h 97% 0.00in /  0mm
02:03 54.4 °F /  12.4 °C 53.6 °F /  12 °C 30.00in /  1015.8hPa SSE 9.0mph /  14.5km/h 11.0mph /  17.7km/h 97% 0.00in /  0mm
02:05 54.5 °F /  12.5 °C 53.7 °F /  12.1 °C 30.00in /  1015.8hPa South 11.0mph /  17.7km/h 12.0mph /  19.3km/h 97% 0.00in /  0mm
02:08 54.5 °F /  12.5 °C 53.7 °F /  12.1 °C 29.99in /  1015.5hPa SE 8.0mph /  12.9km/h 11.0mph /  17.7km/h 97% 0.00in /  0mm
02:10 54.5 °F /  12.5 °C 53.4 °F /  11.9 °C 29.99in /  1015.5hPa SSE 8.0mph /  12.9km/h 12.0mph /  19.3km/h 96% 0.00in /  0mm
02:15 54.5 °F /  12.5 °C 53.4 °F /  11.9 °C 29.99in /  1015.5hPa SSE 12.0mph /  19.3km/h 12.0mph /  19.3km/h 96% 0.00in /  0mm
02:20 54.6 °F /  12.6 °C 53.5 °F /  11.9 °C 29.99in /  1015.5hPa South 7.0mph /  11.3km/h 11.0mph /  17.7km/h 96% 0.00in /  0mm
02:25 54.6 °F /  12.6 °C 53.5 °F /  11.9 °C 29.99in /  1015.5hPa SSE 7.0mph /  11.3km/h 13.0mph /  20.9km/h 96% 0.00in /  0mm
02:26 54.6 °F /  12.6 °C 53.5 °F /  11.9 °C 29.99in /  1015.5hPa SSW 9.0mph /  14.5km/h 13.0mph /  20.9km/h 96% 0.00in /  0mm
02:27 54.6 °F /  12.6 °C 53.5 °F /  11.9 °C 29.99in /  1015.5hPa SSE 13.0mph /  20.9km/h 13.0mph /  20.9km/h 96% 0.00in /  0mm
02:31 54.6 °F /  12.6 °C 53.2 °F /  11.8 °C 29.99in /  1015.5hPa SSE 8.0mph /  12.9km/h 11.0mph /  17.7km/h 95% 0.00in /  0mm
02:32 54.7 °F /  12.6 °C 53.3 °F /  11.8 °C 29.99in /  1015.5hPa SW 7.0mph /  11.3km/h 13.0mph /  20.9km/h 95% 0.00in /  0mm
02:33 54.7 °F /  12.6 °C 53.3 °F /  11.8 °C 29.99in /  1015.5hPa South 7.0mph /  11.3km/h 13.0mph /  20.9km/h 95% 0.00in /  0mm
02:36 54.6 °F /  12.6 °C 52.9 °F /  11.6 °C 29.99in /  1015.5hPa SW 9.0mph /  14.5km/h 12.0mph /  19.3km/h 94% 0.00in /  0mm
02:38 54.4 °F /  12.4 °C 52.4 °F /  11.3 °C 29.99in /  1015.5hPa SW 7.0mph /  11.3km/h 11.0mph /  17.7km/h 93% 0.00in /  0mm
02:41 54.2 °F /  12.3 °C 52.2 °F /  11.2 °C 29.99in /  1015.5hPa SW 9.0mph /  14.5km/h 14.0mph /  22.5km/h 93% 0.00in /  0mm
02:42 54.1 °F /  12.3 °C 52.1 °F /  11.2 °C 30.00in /  1015.8hPa SW 11.0mph /  17.7km/h 14.0mph /  22.5km/h 93% 0.00in /  0mm
02:43 54.0 °F /  12.2 °C 52.0 °F /  11.1 °C 30.00in /  1015.8hPa SW 9.0mph /  14.5km/h 14.0mph /  22.5km/h 93% 0.00in /  0mm
02:48 53.6 °F /  12 °C 51.6 °F /  10.9 °C 30.00in /  1015.8hPa SSW 9.0mph /  14.5km/h 13.0mph /  20.9km/h 93% 0.00in /  0mm
02:53 53.3 °F /  11.8 °C 51.0 °F /  10.6 °C 30.00in /  1015.8hPa SW 8.0mph /  12.9km/h 12.0mph /  19.3km/h 92% 0.00in /  0mm
02:54 53.3 °F /  11.8 °C 51.0 °F /  10.6 °C 30.00in /  1015.8hPa SW 10.0mph /  16.1km/h 12.0mph /  19.3km/h 92% 0.00in /  0mm
02:56 53.2 °F /  11.8 °C 50.9 °F /  10.5 °C 30.00in /  1015.8hPa WSW 10.0mph /  16.1km/h 12.0mph /  19.3km/h 92% 0.00in /  0mm
02:59 53.0 °F /  11.7 °C 50.7 °F /  10.4 °C 29.99in /  1015.5hPa WSW 7.0mph /  11.3km/h 13.0mph /  20.9km/h 92% 0.00in /  0mm
03:00 52.9 °F /  11.6 °C 50.6 °F /  10.3 °C 29.99in /  1015.5hPa SW 7.0mph /  11.3km/h 13.0mph /  20.9km/h 92% 0.00in /  0mm
03:01 52.8 °F /  11.6 °C 50.5 °F /  10.3 °C 29.99in /  1015.5hPa SW 11.0mph /  17.7km/h 11.0mph /  17.7km/h 92% 0.00in /  0mm
03:04 52.7 °F /  11.5 °C 50.5 °F /  10.3 °C 30.00in /  1015.8hPa SW 5.0mph /  8km/h 15.0mph /  24.1km/h 92% 0.00in /  0mm
03:09 52.3 °F /  11.3 °C 50.3 °F /  10.2 °C 30.00in /  1015.8hPa West 7.0mph /  11.3km/h 10.0mph /  16.1km/h 93% 0.00in /  0mm
03:14 51.7 °F /  10.9 °C 49.5 °F /  9.7 °C 30.00in /  1015.8hPa WSW 8.0mph /  12.9km/h 13.0mph /  20.9km/h 92% 0.00in /  0mm
03:15 51.6 °F /  10.9 °C 49.4 °F /  9.7 °C 30.00in /  1015.8hPa WSW 9.0mph /  14.5km/h 13.0mph /  20.9km/h 92% 0.00in /  0mm
03:19 51.3 °F /  10.7 °C 49.1 °F /  9.5 °C 30.00in /  1015.8hPa West 9.0mph /  14.5km/h 13.0mph /  20.9km/h 92% 0.00in /  0mm
03:20 51.2 °F /  10.7 °C 49.0 °F /  9.4 °C 30.00in /  1015.8hPa SW 9.0mph /  14.5km/h 13.0mph /  20.9km/h 92% 0.00in /  0mm
03:25 51.0 °F /  10.6 °C 48.8 °F /  9.3 °C 30.00in /  1015.8hPa WSW 13.0mph /  20.9km/h 13.0mph /  20.9km/h 92% 0.00in /  0mm
03:26 51.0 °F /  10.6 °C 48.8 °F /  9.3 °C 30.00in /  1015.8hPa West 8.0mph /  12.9km/h 13.0mph /  20.9km/h 92% 0.00in /  0mm
03:27 50.9 °F /  10.5 °C 48.4 °F /  9.1 °C 30.00in /  1015.8hPa WSW 14.0mph /  22.5km/h 14.0mph /  22.5km/h 91% 0.00in /  0mm
03:30 50.6 °F /  10.3 °C 48.1 °F /  8.9 °C 30.00in /  1015.8hPa WSW 7.0mph /  11.3km/h 18.0mph /  29km/h 91% 0.00in /  0mm
03:31 50.6 °F /  10.3 °C 48.1 °F /  8.9 °C 30.00in /  1015.8hPa WSW 11.0mph /  17.7km/h 18.0mph /  29km/h 91% 0.00in /  0mm
03:33 50.5 °F /  10.3 °C 48.0 °F /  8.9 °C 30.00in /  1015.8hPa WSW 14.0mph /  22.5km/h 14.0mph /  22.5km/h 91% 0.00in /  0mm
03:34 50.4 °F /  10.2 °C 47.9 °F /  8.8 °C 30.00in /  1015.8hPa WSW 12.0mph /  19.3km/h 14.0mph /  22.5km/h 91% 0.00in /  0mm
03:36 50.3 °F /  10.2 °C 48.1 °F /  8.9 °C 30.00in /  1015.8hPa SW 9.0mph /  14.5km/h 15.0mph /  24.1km/h 92% 0.00in /  0mm
03:38 50.1 °F /  10.1 °C 47.9 °F /  8.8 °C 30.00in /  1015.8hPa West 6.0mph /  9.7km/h 13.0mph /  20.9km/h 92% 0.00in /  0mm
03:39 50.1 °F /  10.1 °C 48.2 °F /  9 °C 30.00in /  1015.8hPa WSW 7.0mph /  11.3km/h 11.0mph /  17.7km/h 93% 0.00in /  0mm
03:44 49.7 °F /  9.8 °C 47.8 °F /  8.8 °C 30.01in /  1016.1hPa West 9.0mph /  14.5km/h 13.0mph /  20.9km/h 93% 0.00in /  0mm
03:49 49.3 °F /  9.6 °C 47.4 °F /  8.6 °C 30.01in /  1016.1hPa SW 11.0mph /  17.7km/h 14.0mph /  22.5km/h 93% 0.00in /  0mm
03:50 49.3 °F /  9.6 °C 47.4 °F /  8.6 °C 30.01in /  1016.1hPa WSW 10.0mph /  16.1km/h 14.0mph /  22.5km/h 93% 0.00in /  0mm
03:55 49.1 °F /  9.5 °C 47.5 °F /  8.6 °C 30.01in /  1016.1hPa SW 8.0mph /  12.9km/h 10.0mph /  16.1km/h 94% 0.00in /  0mm
03:56 49.1 °F /  9.5 °C 47.5 °F /  8.6 °C 30.01in /  1016.1hPa WSW 5.0mph /  8km/h 10.0mph /  16.1km/h 94% 0.00in /  0mm
03:57 49.0 °F /  9.4 °C 47.3 °F /  8.5 °C 30.01in /  1016.1hPa WSW 5.0mph /  8km/h 10.0mph /  16.1km/h 94% 0.00in /  0mm
04:00 48.9 °F /  9.4 °C 47.2 °F /  8.4 °C 30.01in /  1016.1hPa SW 3.0mph /  4.8km/h 8.0mph /  12.9km/h 94% 0.00in /  0mm
04:01 48.9 °F /  9.4 °C 47.2 °F /  8.4 °C 30.01in /  1016.1hPa WSW 4.0mph /  6.4km/h 8.0mph /  12.9km/h 94% 0.00in /  0mm
04:06 48.8 °F /  9.3 °C 47.2 °F /  8.4 °C 30.01in /  1016.1hPa SW 8.0mph /  12.9km/h 10.0mph /  16.1km/h 94% 0.00in /  0mm
04:07 48.8 °F /  9.3 °C 47.2 °F /  8.4 °C 30.01in /  1016.1hPa West 7.0mph /  11.3km/h 10.0mph /  16.1km/h 94% 0.00in /  0mm
04:11 48.7 °F /  9.3 °C 47.0 °F /  8.3 °C 30.01in /  1016.1hPa SSW 5.0mph /  8km/h 11.0mph /  17.7km/h 94% 0.00in /  0mm
04:12 48.7 °F /  9.3 °C 47.0 °F /  8.3 °C 30.01in /  1016.1hPa WSW 6.0mph /  9.7km/h 9.0mph /  14.5km/h 94% 0.00in /  0mm
04:17 48.6 °F /  9.2 °C 46.7 °F /  8.2 °C 30.01in /  1016.1hPa WSW 12.0mph /  19.3km/h 12.0mph /  19.3km/h 93% 0.00in /  0mm
04:18 48.6 °F /  9.2 °C 46.7 °F /  8.2 °C 30.01in /  1016.1hPa WSW 13.0mph /  20.9km/h 15.0mph /  24.1km/h 93% 0.00in /  0mm
04:22 48.5 °F /  9.2 °C 46.6 °F /  8.1 °C 30.01in /  1016.1hPa WSW 6.0mph /  9.7km/h 13.0mph /  20.9km/h 93% 0.00in /  0mm
04:23 48.5 °F /  9.2 °C 46.6 °F /  8.1 °C 30.01in /  1016.1hPa WSW 4.0mph /  6.4km/h 9.0mph /  14.5km/h 93% 0.00in /  0mm
04:27 48.3 °F /  9.1 °C 46.4 °F /  8 °C 30.01in /  1016.1hPa West 3.0mph /  4.8km/h 9.0mph /  14.5km/h 93% 0.00in /  0mm
04:28 48.3 °F /  9.1 °C 46.4 °F /  8 °C 30.01in /  1016.1hPa West 7.0mph /  11.3km/h 7.0mph /  11.3km/h 93% 0.00in /  0mm
04:29 48.3 °F /  9.1 °C 46.4 °F /  8 °C 30.01in /  1016.1hPa West 4.0mph /  6.4km/h 7.0mph /  11.3km/h 93% 0.00in /  0mm
04:32 48.2 °F /  9 °C 46.3 °F /  7.9 °C 30.01in /  1016.1hPa West 2.0mph /  3.2km/h 6.0mph /  9.7km/h 93% 0.00in /  0mm
04:33 48.2 °F /  9 °C 46.6 °F /  8.1 °C 30.01in /  1016.1hPa West 5.0mph /  8km/h 6.0mph /  9.7km/h 94% 0.00in /  0mm
04:34 48.1 °F /  8.9 °C 46.5 °F /  8.1 °C 30.01in /  1016.1hPa NW 5.0mph /  8km/h 6.0mph /  9.7km/h 94% 0.00in /  0mm
04:35 48.1 °F /  8.9 °C 46.2 °F /  7.9 °C 30.01in /  1016.1hPa WNW 6.0mph /  9.7km/h 9.0mph /  14.5km/h 93% 0.00in /  0mm
04:38 47.9 °F /  8.8 °C 46.0 °F /  7.8 °C 30.01in /  1016.1hPa WSW 9.0mph /  14.5km/h 13.0mph /  20.9km/h 93% 0.00in /  0mm
04:44 47.7 °F /  8.7 °C 45.5 °F /  7.5 °C 30.01in /  1016.1hPa WSW 9.0mph /  14.5km/h 13.0mph /  20.9km/h 92% 0.00in /  0mm
04:45 47.6 °F /  8.7 °C 45.4 °F /  7.4 °C 30.01in /  1016.1hPa WSW 6.0mph /  9.7km/h 13.0mph /  20.9km/h 92% 0.00in /  0mm
04:49 47.5 °F /  8.6 °C 45.3 °F /  7.4 °C 30.01in /  1016.1hPa WSW 5.0mph /  8km/h 7.0mph /  11.3km/h 92% 0.00in /  0mm
04:54 47.4 °F /  8.6 °C 45.2 °F /  7.3 °C 30.01in /  1016.1hPa WSW 7.0mph /  11.3km/h 9.0mph /  14.5km/h 92% 0.00in /  0mm
04:55 47.3 °F /  8.5 °C 45.1 °F /  7.3 °C 30.01in /  1016.1hPa SW 3.0mph /  4.8km/h 9.0mph /  14.5km/h 92% 0.00in /  0mm
04:59 47.3 °F /  8.5 °C 45.4 °F /  7.4 °C 30.01in /  1016.1hPa WSW 9.0mph /  14.5km/h 10.0mph /  16.1km/h 93% 0.00in /  0mm
05:00 47.2 °F /  8.4 °C 45.3 °F /  7.4 °C 30.01in /  1016.1hPa WSW 8.0mph /  12.9km/h 10.0mph /  16.1km/h 93% 0.00in /  0mm
05:04 47.1 °F /  8.4 °C 45.2 °F /  7.3 °C 30.01in /  1016.1hPa West 6.0mph /  9.7km/h 10.0mph /  16.1km/h 93% 0.00in /  0mm
05:05 47.1 °F /  8.4 °C 45.2 °F /  7.3 °C 30.01in /  1016.1hPa WSW 7.0mph /  11.3km/h 10.0mph /  16.1km/h 93% 0.00in /  0mm
05:06 47.1 °F /  8.4 °C 45.2 °F /  7.3 °C 30.01in /  1016.1hPa WSW 12.0mph /  19.3km/h 12.0mph /  19.3km/h 93% 0.00in /  0mm
05:09 47.0 °F /  8.3 °C 45.4 °F /  7.4 °C 30.01in /  1016.1hPa WSW 6.0mph /  9.7km/h 12.0mph /  19.3km/h 94% 0.00in /  0mm
05:11 46.8 °F /  8.2 °C 44.9 °F /  7.2 °C 30.01in /  1016.1hPa West 7.0mph /  11.3km/h 11.0mph /  17.7km/h 93% 0.00in /  0mm
05:14 46.6 °F /  8.1 °C 45.0 °F /  7.2 °C 30.01in /  1016.1hPa WNW 8.0mph /  12.9km/h 9.0mph /  14.5km/h 94% 0.00in /  0mm
05:15 46.5 °F /  8.1 °C 44.9 °F /  7.2 °C 30.01in /  1016.1hPa WNW 6.0mph /  9.7km/h 9.0mph /  14.5km/h 94% 0.00in /  0mm
05:16 46.4 °F /  8 °C 44.8 °F /  7.1 °C 30.01in /  1016.1hPa West 5.0mph /  8km/h 9.0mph /  14.5km/h 94% 0.00in /  0mm
05:20 46.2 °F /  7.9 °C 44.6 °F /  7 °C 30.01in /  1016.1hPa West 4.0mph /  6.4km/h 10.0mph /  16.1km/h 94% 0.00in /  0mm
05:22 46.1 °F /  7.8 °C 44.5 °F /  6.9 °C 30.01in /  1016.1hPa West 6.0mph /  9.7km/h 8.0mph /  12.9km/h 94% 0.00in /  0mm
05:27 45.9 °F /  7.7 °C 44.3 °F /  6.8 °C 30.01in /  1016.1hPa West 7.0mph /  11.3km/h 10.0mph /  16.1km/h 94% 0.00in /  0mm
05:28 45.9 °F /  7.7 °C 44.3 °F /  6.8 °C 30.01in /  1016.1hPa WSW 9.0mph /  14.5km/h 9.0mph /  14.5km/h 94% 0.00in /  0mm
05:31 45.8 °F /  7.7 °C 44.2 °F /  6.8 °C 30.02in /  1016.5hPa West 7.0mph /  11.3km/h 11.0mph /  17.7km/h 94% 0.00in /  0mm
05:32 45.8 °F /  7.7 °C 43.9 °F /  6.6 °C 30.01in /  1016.1hPa West 6.0mph /  9.7km/h 13.0mph /  20.9km/h 93% 0.00in /  0mm
05:33 45.8 °F /  7.7 °C 44.2 °F /  6.8 °C 30.01in /  1016.1hPa West 7.0mph /  11.3km/h 13.0mph /  20.9km/h 94% 0.00in /  0mm
05:37 45.6 °F /  7.6 °C 43.7 °F /  6.5 °C 30.01in /  1016.1hPa WSW 8.0mph /  12.9km/h 12.0mph /  19.3km/h 93% 0.00in /  0mm
05:38 45.6 °F /  7.6 °C 43.7 °F /  6.5 °C 30.01in /  1016.1hPa WSW 6.0mph /  9.7km/h 12.0mph /  19.3km/h 93% 0.00in /  0mm
05:42 45.5 °F /  7.5 °C 43.3 °F /  6.3 °C 30.02in /  1016.5hPa WSW 6.0mph /  9.7km/h 10.0mph /  16.1km/h 92% 0.00in /  0mm
05:44 45.5 °F /  7.5 °C 43.6 °F /  6.4 °C 30.02in /  1016.5hPa WSW 7.0mph /  11.3km/h 9.0mph /  14.5km/h 93% 0.00in /  0mm
05:47 45.4 °F /  7.4 °C 43.2 °F /  6.2 °C 30.02in /  1016.5hPa West 9.0mph /  14.5km/h 13.0mph /  20.9km/h 92% 0.00in /  0mm
05:52 45.3 °F /  7.4 °C 42.8 °F /  6 °C 30.02in /  1016.5hPa West 7.0mph /  11.3km/h 10.0mph /  16.1km/h 91% 0.00in /  0mm
05:53 45.3 °F /  7.4 °C 42.8 °F /  6 °C 30.02in /  1016.5hPa WSW 8.0mph /  12.9km/h 10.0mph /  16.1km/h 91% 0.00in /  0mm
05:54 45.3 °F /  7.4 °C 42.8 °F /  6 °C 30.02in /  1016.5hPa West 5.0mph /  8km/h 9.0mph /  14.5km/h 91% 0.00in /  0mm
05:57 45.2 °F /  7.3 °C 43.0 °F /  6.1 °C 30.03in /  1016.8hPa West 6.0mph /  9.7km/h 9.0mph /  14.5km/h 92% 0.00in /  0mm
05:58 45.2 °F /  7.3 °C 43.0 °F /  6.1 °C 30.03in /  1016.8hPa West 6.0mph /  9.7km/h 9.0mph /  14.5km/h 92% 0.00in /  0mm
06:03 45.2 °F /  7.3 °C 43.0 °F /  6.1 °C 30.02in /  1016.5hPa West 5.0mph /  8km/h 7.0mph /  11.3km/h 92% 0.00in /  0mm
06:04 45.1 °F /  7.3 °C 42.9 °F /  6.1 °C 30.02in /  1016.5hPa West 4.0mph /  6.4km/h 7.0mph /  11.3km/h 92% 0.00in /  0mm
06:08 45.1 °F /  7.3 °C 42.9 °F /  6.1 °C 30.02in /  1016.5hPa West 5.0mph /  8km/h 9.0mph /  14.5km/h 92% 0.00in /  0mm
06:09 45.1 °F /  7.3 °C 42.9 °F /  6.1 °C 30.03in /  1016.8hPa West 3.0mph /  4.8km/h 8.0mph /  12.9km/h 92% 0.00in /  0mm
06:13 45.1 °F /  7.3 °C 42.9 °F /  6.1 °C 30.03in /  1016.8hPa WSW 7.0mph /  11.3km/h 10.0mph /  16.1km/h 92% 0.00in /  0mm
06:18 45.1 °F /  7.3 °C 42.9 °F /  6.1 °C 30.03in /  1016.8hPa West 4.0mph /  6.4km/h 8.0mph /  12.9km/h 92% 0.00in /  0mm
06:19 45.1 °F /  7.3 °C 42.9 °F /  6.1 °C 30.03in /  1016.8hPa WSW 4.0mph /  6.4km/h 8.0mph /  12.9km/h 92% 0.00in /  0mm
06:23 45.0 °F /  7.2 °C 42.8 °F /  6 °C 30.03in /  1016.8hPa WSW 4.0mph /  6.4km/h 7.0mph /  11.3km/h 92% 0.00in /  0mm
06:24 45.0 °F /  7.2 °C 42.8 °F /  6 °C 30.03in /  1016.8hPa SW 5.0mph /  8km/h 7.0mph /  11.3km/h 92% 0.00in /  0mm
06:27 44.9 °F /  7.2 °C 42.7 °F /  5.9 °C 30.03in /  1016.8hPa WSW 5.0mph /  8km/h 6.0mph /  9.7km/h 92% 0.00in /  0mm
06:28 44.9 °F /  7.2 °C 42.7 °F /  5.9 °C 30.03in /  1016.8hPa WSW 4.0mph /  6.4km/h 6.0mph /  9.7km/h 92% 0.00in /  0mm
06:29 44.9 °F /  7.2 °C 43.0 °F /  6.1 °C 30.03in /  1016.8hPa WSW 6.0mph /  9.7km/h 6.0mph /  9.7km/h 93% 0.00in /  0mm
06:31 44.9 °F /  7.2 °C 43.0 °F /  6.1 °C 30.04in /  1017.2hPa WSW 2.0mph /  3.2km/h 6.0mph /  9.7km/h 93% 0.00in /  0mm
06:34 44.9 °F /  7.2 °C 43.0 °F /  6.1 °C 30.03in /  1016.8hPa WSW 2.0mph /  3.2km/h 5.0mph /  8km/h 93% 0.00in /  0mm
06:35 44.9 °F /  7.2 °C 43.0 °F /  6.1 °C 30.03in /  1016.8hPa SSW 2.0mph /  3.2km/h 4.0mph /  6.4km/h 93% 0.00in /  0mm
06:36 44.9 °F /  7.2 °C 43.0 °F /  6.1 °C 30.03in /  1016.8hPa West 3.0mph /  4.8km/h 4.0mph /  6.4km/h 93% 0.00in /  0mm
06:37 44.9 °F /  7.2 °C 43.0 °F /  6.1 °C 30.03in /  1016.8hPa SW 3.0mph /  4.8km/h 4.0mph /  6.4km/h 93% 0.00in /  0mm
06:39 44.9 °F /  7.2 °C 43.0 °F /  6.1 °C 30.04in /  1017.2hPa WSW 2.0mph /  3.2km/h 5.0mph /  8km/h 93% 0.00in /  0mm
06:44 44.9 °F /  7.2 °C 43.0 °F /  6.1 °C 30.04in /  1017.2hPa SW 4.0mph /  6.4km/h 5.0mph /  8km/h 93% 0.00in /  0mm
06:49 44.9 °F /  7.2 °C 42.7 °F /  5.9 °C 30.04in /  1017.2hPa WSW 4.0mph /  6.4km/h 8.0mph /  12.9km/h 92% 0.00in /  0mm
06:54 44.8 °F /  7.1 °C 42.6 °F /  5.9 °C 30.04in /  1017.2hPa SSW 6.0mph /  9.7km/h 7.0mph /  11.3km/h 92% 0.00in /  0mm
06:55 44.8 °F /  7.1 °C 42.6 °F /  5.9 °C 30.04in /  1017.2hPa SW 5.0mph /  8km/h 7.0mph /  11.3km/h 92% 0.00in /  0mm
06:56 44.8 °F /  7.1 °C 42.6 °F /  5.9 °C 30.04in /  1017.2hPa WSW 7.0mph /  11.3km/h 7.0mph /  11.3km/h 92% 0.00in /  0mm
07:00 44.7 °F /  7.1 °C 42.5 °F /  5.8 °C 30.05in /  1017.5hPa SW 5.0mph /  8km/h 5.0mph /  8km/h 92% 0.00in /  0mm
07:05 44.7 °F /  7.1 °C 42.2 °F /  5.7 °C 30.05in /  1017.5hPa WSW 5.0mph /  8km/h 7.0mph /  11.3km/h 91% 0.00in /  0mm
07:10 44.6 °F /  7 °C 42.1 °F /  5.6 °C 30.05in /  1017.5hPa SW 4.0mph /  6.4km/h 6.0mph /  9.7km/h 91% 0.00in /  0mm
07:15 44.5 °F /  6.9 °C 42.3 °F /  5.7 °C 30.05in /  1017.5hPa SW 4.0mph /  6.4km/h 6.0mph /  9.7km/h 92% 0.00in /  0mm
07:20 44.5 °F /  6.9 °C 42.3 °F /  5.7 °C 30.05in /  1017.5hPa SW 4.0mph /  6.4km/h 5.0mph /  8km/h 92% 0.00in /  0mm
07:21 44.5 °F /  6.9 °C 42.0 °F /  5.6 °C 30.05in /  1017.5hPa SW 4.0mph /  6.4km/h 5.0mph /  8km/h 91% 0.00in /  0mm
07:26 44.4 °F /  6.9 °C 41.9 °F /  5.5 °C 30.05in /  1017.5hPa SW 5.0mph /  8km/h 7.0mph /  11.3km/h 91% 0.00in /  0mm
07:27 44.4 °F /  6.9 °C 41.9 °F /  5.5 °C 30.05in /  1017.5hPa SW 3.0mph /  4.8km/h 7.0mph /  11.3km/h 91% 0.00in /  0mm
07:31 44.4 °F /  6.9 °C 41.9 °F /  5.5 °C 30.05in /  1017.5hPa SW 5.0mph /  8km/h 7.0mph /  11.3km/h 91% 0.00in /  0mm
07:32 44.4 °F /  6.9 °C 41.9 °F /  5.5 °C 30.05in /  1017.5hPa SW 6.0mph /  9.7km/h 7.0mph /  11.3km/h 91% 0.00in /  0mm
07:33 44.4 °F /  6.9 °C 41.9 °F /  5.5 °C 30.05in /  1017.5hPa SW 4.0mph /  6.4km/h 7.0mph /  11.3km/h 91% 0.00in /  0mm
07:37 44.3 °F /  6.8 °C 41.8 °F /  5.4 °C 30.05in /  1017.5hPa SW 6.0mph /  9.7km/h 8.0mph /  12.9km/h 91% 0.00in /  0mm
07:38 44.3 °F /  6.8 °C 41.8 °F /  5.4 °C 30.05in /  1017.5hPa SW 5.0mph /  8km/h 8.0mph /  12.9km/h 91% 0.00in /  0mm
07:42 44.3 °F /  6.8 °C 41.8 °F /  5.4 °C 30.06in /  1017.8hPa WSW 5.0mph /  8km/h 7.0mph /  11.3km/h 91% 0.00in /  0mm
07:43 44.3 °F /  6.8 °C 41.8 °F /  5.4 °C 30.06in /  1017.8hPa SW 5.0mph /  8km/h 7.0mph /  11.3km/h 91% 0.00in /  0mm
07:47 44.2 °F /  6.8 °C 41.7 °F /  5.4 °C 30.06in /  1017.8hPa WSW 4.0mph /  6.4km/h 7.0mph /  11.3km/h 91% 0.00in /  0mm
07:52 44.1 °F /  6.7 °C 41.7 °F /  5.4 °C 30.06in /  1017.8hPa SW 8.0mph /  12.9km/h 8.0mph /  12.9km/h 91% 0.00in /  0mm
07:53 44.1 °F /  6.7 °C 41.7 °F /  5.4 °C 30.06in /  1017.8hPa SW 8.0mph /  12.9km/h 8.0mph /  12.9km/h 91% 0.00in /  0mm
07:58 44.1 °F /  6.7 °C 41.7 °F /  5.4 °C 30.06in /  1017.8hPa SW 5.0mph /  8km/h 6.0mph /  9.7km/h 91% 0.00in /  0mm
08:03 44.0 °F /  6.7 °C 41.8 °F /  5.4 °C 30.06in /  1017.8hPa SW 4.0mph /  6.4km/h 5.0mph /  8km/h 92% 0.00in /  0mm
08:08 44.0 °F /  6.7 °C 41.5 °F /  5.3 °C 30.07in /  1018.2hPa SW 4.0mph /  6.4km/h 6.0mph /  9.7km/h 91% 0.00in /  0mm
08:13 44.0 °F /  6.7 °C 41.5 °F /  5.3 °C 30.06in /  1017.8hPa SSW 3.0mph /  4.8km/h 6.0mph /  9.7km/h 91% 0.00in /  0mm
08:14 44.0 °F /  6.7 °C 41.5 °F /  5.3 °C 30.06in /  1017.8hPa SW 4.0mph /  6.4km/h 6.0mph /  9.7km/h 91% 0.00in /  0mm
08:19 44.0 °F /  6.7 °C 41.5 °F /  5.3 °C 30.07in /  1018.2hPa SW 4.0mph /  6.4km/h 6.0mph /  9.7km/h 91% 0.00in /  0mm
08:20 44.0 °F /  6.7 °C 41.5 °F /  5.3 °C 30.07in /  1018.2hPa South 2.0mph /  3.2km/h 6.0mph /  9.7km/h 91% 0.00in /  0mm
08:24 43.9 °F /  6.6 °C 41.7 °F /  5.4 °C 30.07in /  1018.2hPa SW 5.0mph /  8km/h 6.0mph /  9.7km/h 92% 0.00in /  0mm
08:27 43.9 °F /  6.6 °C 41.7 °F /  5.4 °C 30.07in /  1018.2hPa SSW 6.0mph /  9.7km/h 7.0mph /  11.3km/h 92% 0.00in /  0mm
08:29 43.9 °F /  6.6 °C 41.7 °F /  5.4 °C 30.07in /  1018.2hPa SSW 6.0mph /  9.7km/h 7.0mph /  11.3km/h 92% 0.00in /  0mm
08:30 43.9 °F /  6.6 °C 41.7 °F /  5.4 °C 30.07in /  1018.2hPa SW 4.0mph /  6.4km/h 7.0mph /  11.3km/h 92% 0.00in /  0mm
08:32 43.9 °F /  6.6 °C 41.7 °F /  5.4 °C 30.07in /  1018.2hPa SW 5.0mph /  8km/h 6.0mph /  9.7km/h 92% 0.00in /  0mm
08:35 43.8 °F /  6.6 °C 41.6 °F /  5.3 °C 30.07in /  1018.2hPa SSW 3.0mph /  4.8km/h 7.0mph /  11.3km/h 92% 0.00in /  0mm
08:36 43.8 °F /  6.6 °C 41.6 °F /  5.3 °C 30.07in /  1018.2hPa SSW 4.0mph /  6.4km/h 6.0mph /  9.7km/h 92% 0.00in /  0mm
08:37 43.8 °F /  6.6 °C 41.6 °F /  5.3 °C 30.07in /  1018.2hPa SW 3.0mph /  4.8km/h 6.0mph /  9.7km/h 92% 0.00in /  0mm
08:40 43.8 °F /  6.6 °C 41.6 °F /  5.3 °C 30.07in /  1018.2hPa WSW 2.0mph /  3.2km/h 5.0mph /  8km/h 92% 0.00in /  0mm
08:42 43.7 °F /  6.5 °C 41.8 °F /  5.4 °C 30.07in /  1018.2hPa SW 2.0mph /  3.2km/h 5.0mph /  8km/h 93% 0.00in /  0mm
08:47 43.7 °F /  6.5 °C 41.5 °F /  5.3 °C 30.08in /  1018.5hPa WSW 3.0mph /  4.8km/h 7.0mph /  11.3km/h 92% 0.00in /  0mm
08:48 43.7 °F /  6.5 °C 41.5 °F /  5.3 °C 30.08in /  1018.5hPa SW 5.0mph /  8km/h 7.0mph /  11.3km/h 92% 0.00in /  0mm
08:53 43.6 °F /  6.4 °C 41.7 °F /  5.4 °C 30.08in /  1018.5hPa SW 6.0mph /  9.7km/h 8.0mph /  12.9km/h 93% 0.00in /  0mm
08:58 43.6 °F /  6.4 °C 41.7 °F /  5.4 °C 30.08in /  1018.5hPa SW 4.0mph /  6.4km/h 6.0mph /  9.7km/h 93% 0.00in /  0mm
08:59 43.5 °F /  6.4 °C 41.6 °F /  5.3 °C 30.08in /  1018.5hPa SW 7.0mph /  11.3km/h 7.0mph /  11.3km/h 93% 0.00in /  0mm
09:04 43.4 °F /  6.3 °C 41.8 °F /  5.4 °C 30.08in /  1018.5hPa SW 6.0mph /  9.7km/h 7.0mph /  11.3km/h 94% 0.00in /  0mm
09:05 43.4 °F /  6.3 °C 41.8 °F /  5.4 °C 30.08in /  1018.5hPa SSW 4.0mph /  6.4km/h 7.0mph /  11.3km/h 94% 0.00in /  0mm
09:09 43.3 °F /  6.3 °C 41.7 °F /  5.4 °C 30.08in /  1018.5hPa SSW 5.0mph /  8km/h 7.0mph /  11.3km/h 94% 0.00in /  0mm
09:10 43.3 °F /  6.3 °C 41.7 °F /  5.4 °C 30.08in /  1018.5hPa SW 4.0mph /  6.4km/h 7.0mph /  11.3km/h 94% 0.00in /  0mm
09:14 43.3 °F /  6.3 °C 42.0 °F /  5.6 °C 30.08in /  1018.5hPa SSE 4.0mph /  6.4km/h 7.0mph /  11.3km/h 95% 0.00in /  0mm
09:15 43.3 °F /  6.3 °C 42.0 °F /  5.6 °C 30.09in /  1018.8hPa SSW 7.0mph /  11.3km/h 7.0mph /  11.3km/h 95% 0.00in /  0mm
09:19 43.2 °F /  6.2 °C 41.9 °F /  5.5 °C 30.09in /  1018.8hPa SSW 4.0mph /  6.4km/h 7.0mph /  11.3km/h 95% 0.00in /  0mm
09:20 43.2 °F /  6.2 °C 41.9 °F /  5.5 °C 30.09in /  1018.8hPa WSW 4.0mph /  6.4km/h 7.0mph /  11.3km/h 95% 0.00in /  0mm
09:25 43.2 °F /  6.2 °C 41.9 °F /  5.5 °C 30.09in /  1018.8hPa SW 4.0mph /  6.4km/h 6.0mph /  9.7km/h 95% 0.00in /  0mm
09:26 43.2 °F /  6.2 °C 42.1 °F /  5.6 °C 30.09in /  1018.8hPa SW 7.0mph /  11.3km/h 7.0mph /  11.3km/h 96% 0.00in /  0mm
09:30 43.3 °F /  6.3 °C 42.2 °F /  5.7 °C 30.10in /  1019.2hPa SW 5.0mph /  8km/h 6.0mph /  9.7km/h 96% 0.00in /  0mm
09:32 43.3 °F /  6.3 °C 42.2 °F /  5.7 °C 30.09in /  1018.8hPa SW 5.0mph /  8km/h 6.0mph /  9.7km/h 96% 0.00in /  0mm
09:33 43.2 °F /  6.2 °C 42.1 °F /  5.6 °C 30.10in /  1019.2hPa SSW 4.0mph /  6.4km/h 7.0mph /  11.3km/h 96% 0.00in /  0mm
09:36 43.2 °F /  6.2 °C 42.1 °F /  5.6 °C 30.10in /  1019.2hPa SSW 4.0mph /  6.4km/h 7.0mph /  11.3km/h 96% 0.00in /  0mm
09:38 43.2 °F /  6.2 °C 42.1 °F /  5.6 °C 30.10in /  1019.2hPa WSW 5.0mph /  8km/h 7.0mph /  11.3km/h 96% 0.00in /  0mm
09:41 43.3 °F /  6.3 °C 42.2 °F /  5.7 °C 30.10in /  1019.2hPa SW 5.0mph /  8km/h 6.0mph /  9.7km/h 96% 0.00in /  0mm
09:43 43.3 °F /  6.3 °C 42.2 °F /  5.7 °C 30.10in /  1019.2hPa South 6.0mph /  9.7km/h 7.0mph /  11.3km/h 96% 0.00in /  0mm
09:48 43.3 °F /  6.3 °C 42.0 °F /  5.6 °C 30.09in /  1018.8hPa West 6.0mph /  9.7km/h 6.0mph /  9.7km/h 95% 0.00in /  0mm
09:49 43.3 °F /  6.3 °C 42.0 °F /  5.6 °C 30.09in /  1018.8hPa WSW 6.0mph /  9.7km/h 7.0mph /  11.3km/h 95% 0.00in /  0mm
09:53 43.3 °F /  6.3 °C 42.0 °F /  5.6 °C 30.10in /  1019.2hPa WSW 4.0mph /  6.4km/h 7.0mph /  11.3km/h 95% 0.00in /  0mm
09:54 43.3 °F /  6.3 °C 42.0 °F /  5.6 °C 30.10in /  1019.2hPa WSW 4.0mph /  6.4km/h 6.0mph /  9.7km/h 95% 0.00in /  0mm
09:55 43.3 °F /  6.3 °C 42.0 °F /  5.6 °C 30.10in /  1019.2hPa West 5.0mph /  8km/h 5.0mph /  8km/h 95% 0.00in /  0mm
09:58 43.2 °F /  6.2 °C 41.9 °F /  5.5 °C 30.10in /  1019.2hPa West 4.0mph /  6.4km/h 6.0mph /  9.7km/h 95% 0.00in /  0mm
09:59 43.2 °F /  6.2 °C 41.9 °F /  5.5 °C 30.10in /  1019.2hPa WSW 5.0mph /  8km/h 6.0mph /  9.7km/h 95% 0.00in /  0mm
10:04 43.2 °F /  6.2 °C 41.9 °F /  5.5 °C 30.11in /  1019.5hPa WSW 6.0mph /  9.7km/h 7.0mph /  11.3km/h 95% 0.00in /  0mm
10:09 43.3 °F /  6.3 °C 42.0 °F /  5.6 °C 30.11in /  1019.5hPa West 4.0mph /  6.4km/h 8.0mph /  12.9km/h 95% 0.00in /  0mm
10:10 43.4 °F /  6.3 °C 42.3 °F /  5.7 °C 30.11in /  1019.5hPa WSW 4.0mph /  6.4km/h 6.0mph /  9.7km/h 96% 0.00in /  0mm
10:14 43.5 °F /  6.4 °C 41.9 °F /  5.5 °C 30.11in /  1019.5hPa West 6.0mph /  9.7km/h 8.0mph /  12.9km/h 94% 0.00in /  0mm
10:15 43.5 °F /  6.4 °C 41.9 °F /  5.5 °C 30.11in /  1019.5hPa WSW 8.0mph /  12.9km/h 8.0mph /  12.9km/h 94% 0.00in /  0mm
10:19 43.6 °F /  6.4 °C 42.0 °F /  5.6 °C 30.11in /  1019.5hPa WSW 9.0mph /  14.5km/h 9.0mph /  14.5km/h 94% 0.00in /  0mm
10:20 43.6 °F /  6.4 °C 42.0 °F /  5.6 °C 30.11in /  1019.5hPa WSW 10.0mph /  16.1km/h 10.0mph /  16.1km/h 94% 0.00in /  0mm
10:24 43.7 °F /  6.5 °C 42.1 °F /  5.6 °C 30.11in /  1019.5hPa West 5.0mph /  8km/h 8.0mph /  12.9km/h 94% 0.00in /  0mm
10:25 43.7 °F /  6.5 °C 42.4 °F /  5.8 °C 30.11in /  1019.5hPa West 5.0mph /  8km/h 8.0mph /  12.9km/h 95% 0.00in /  0mm
10:26 43.9 °F /  6.6 °C 42.6 °F /  5.9 °C 30.11in /  1019.5hPa WSW 4.0mph /  6.4km/h 5.0mph /  8km/h 95% 0.00in /  0mm
10:30 43.9 °F /  6.6 °C 42.3 °F /  5.7 °C 30.10in /  1019.2hPa SW 5.0mph /  8km/h 9.0mph /  14.5km/h 94% 0.00in /  0mm
10:35 43.8 °F /  6.6 °C 42.2 °F /  5.7 °C 30.10in /  1019.2hPa SSW 4.0mph /  6.4km/h 8.0mph /  12.9km/h 94% 0.00in /  0mm
10:36 43.8 °F /  6.6 °C 41.9 °F /  5.5 °C 30.10in /  1019.2hPa SW 5.0mph /  8km/h 8.0mph /  12.9km/h 93% 0.00in /  0mm
10:40 44.3 °F /  6.8 °C 43.0 °F /  6.1 °C 30.11in /  1019.5hPa WSW 3.0mph /  4.8km/h 5.0mph /  8km/h 95% 0.00in /  0mm
10:41 44.5 °F /  6.9 °C 43.2 °F /  6.2 °C 30.11in /  1019.5hPa South 5.0mph /  8km/h 7.0mph /  11.3km/h 95% 0.00in /  0mm
10:46 45.3 °F /  7.4 °C 43.7 °F /  6.5 °C 30.11in /  1019.5hPa SSW 2.0mph /  3.2km/h 7.0mph /  11.3km/h 94% 0.00in /  0mm
10:47 45.3 °F /  7.4 °C 43.4 °F /  6.3 °C 30.11in /  1019.5hPa SW 5.0mph /  8km/h 7.0mph /  11.3km/h 93% 0.00in /  0mm
10:52 45.6 °F /  7.6 °C 43.4 °F /  6.3 °C 30.11in /  1019.5hPa SW 6.0mph /  9.7km/h 8.0mph /  12.9km/h 92% 0.00in /  0mm
10:53 45.6 °F /  7.6 °C 43.4 °F /  6.3 °C 30.11in /  1019.5hPa South 4.0mph /  6.4km/h 8.0mph /  12.9km/h 92% 0.00in /  0mm
10:54 46.0 °F /  7.8 °C 44.4 °F /  6.9 °C 30.11in /  1019.5hPa WSW 5.0mph /  8km/h 8.0mph /  12.9km/h 94% 0.00in /  0mm
10:57 46.0 °F /  7.8 °C 43.5 °F /  6.4 °C 30.11in /  1019.5hPa SW 6.0mph /  9.7km/h 9.0mph /  14.5km/h 91% 0.00in /  0mm
10:58 46.1 °F /  7.8 °C 43.6 °F /  6.4 °C 30.11in /  1019.5hPa SSW 6.0mph /  9.7km/h 9.0mph /  14.5km/h 91% 0.00in /  0mm
11:03 46.2 °F /  7.9 °C 43.4 °F /  6.3 °C 30.11in /  1019.5hPa SW 10.0mph /  16.1km/h 10.0mph /  16.1km/h 90% 0.00in /  0mm
11:08 45.9 °F /  7.7 °C 43.1 °F /  6.2 °C 30.11in /  1019.5hPa SSW 5.0mph /  8km/h 8.0mph /  12.9km/h 90% 0.00in /  0mm
11:09 45.9 °F /  7.7 °C 43.1 °F /  6.2 °C 30.11in /  1019.5hPa SSW 8.0mph /  12.9km/h 8.0mph /  12.9km/h 90% 0.00in /  0mm
11:13 45.9 °F /  7.7 °C 41.7 °F /  5.4 °C 30.11in /  1019.5hPa WSW 11.0mph /  17.7km/h 11.0mph /  17.7km/h 85% 0.00in /  0mm
11:18 45.9 °F /  7.7 °C 42.5 °F /  5.8 °C 30.11in /  1019.5hPa WSW 5.0mph /  8km/h 11.0mph /  17.7km/h 88% 0.00in /  0mm
11:23 45.8 °F /  7.7 °C 41.5 °F /  5.3 °C 30.11in /  1019.5hPa SW 10.0mph /  16.1km/h 11.0mph /  17.7km/h 85% 0.00in /  0mm
11:24 45.8 °F /  7.7 °C 41.5 °F /  5.3 °C 30.11in /  1019.5hPa SW 8.0mph /  12.9km/h 11.0mph /  17.7km/h 85% 0.00in /  0mm
11:27 45.7 °F /  7.6 °C 42.1 °F /  5.6 °C 30.11in /  1019.5hPa SW 7.0mph /  11.3km/h 10.0mph /  16.1km/h 87% 0.00in /  0mm
11:29 45.6 °F /  7.6 °C 42.0 °F /  5.6 °C 30.11in /  1019.5hPa WSW 4.0mph /  6.4km/h 9.0mph /  14.5km/h 87% 0.00in /  0mm
11:30 45.6 °F /  7.6 °C 42.0 °F /  5.6 °C 30.12in /  1019.9hPa West 7.0mph /  11.3km/h 10.0mph /  16.1km/h 87% 0.00in /  0mm
11:32 45.6 °F /  7.6 °C 42.3 °F /  5.7 °C 30.12in /  1019.9hPa SW 7.0mph /  11.3km/h 10.0mph /  16.1km/h 88% 0.00in /  0mm
11:34 45.6 °F /  7.6 °C 42.3 °F /  5.7 °C 30.12in /  1019.9hPa West 10.0mph /  16.1km/h 10.0mph /  16.1km/h 88% 0.00in /  0mm
11:35 45.6 °F /  7.6 °C 42.0 °F /  5.6 °C 30.12in /  1019.9hPa SW 6.0mph /  9.7km/h 10.0mph /  16.1km/h 87% 0.00in /  0mm
11:37 45.7 °F /  7.6 °C 41.8 °F /  5.4 °C 30.12in /  1019.9hPa SW 4.0mph /  6.4km/h 10.0mph /  16.1km/h 86% 0.00in /  0mm
11:39 45.7 °F /  7.6 °C 41.5 °F /  5.3 °C 30.12in /  1019.9hPa West 6.0mph /  9.7km/h 10.0mph /  16.1km/h 85% 0.00in /  0mm
11:44 45.9 °F /  7.7 °C 42.0 °F /  5.6 °C 30.12in /  1019.9hPa West 6.0mph /  9.7km/h 9.0mph /  14.5km/h 86% 0.00in /  0mm
11:49 46.2 °F /  7.9 °C 41.6 °F /  5.3 °C 30.12in /  1019.9hPa SW 7.0mph /  11.3km/h 11.0mph /  17.7km/h 84% 0.00in /  0mm
11:54 46.5 °F /  8.1 °C 41.3 °F /  5.2 °C 30.12in /  1019.9hPa SW 7.0mph /  11.3km/h 10.0mph /  16.1km/h 82% 0.00in /  0mm
11:55 46.5 °F /  8.1 °C 41.3 °F /  5.2 °C 30.12in /  1019.9hPa SW 5.0mph /  8km/h 8.0mph /  12.9km/h 82% 0.00in /  0mm
11:59 46.5 °F /  8.1 °C 41.9 °F /  5.5 °C 30.12in /  1019.9hPa SSW 7.0mph /  11.3km/h 11.0mph /  17.7km/h 84% 0.00in /  0mm
12:00 46.5 °F /  8.1 °C 42.2 °F /  5.7 °C 30.12in /  1019.9hPa SW 10.0mph /  16.1km/h 11.0mph /  17.7km/h 85% 0.00in /  0mm
12:04 46.3 °F /  7.9 °C 41.7 °F /  5.4 °C 30.11in /  1019.5hPa SSW 11.0mph /  17.7km/h 11.0mph /  17.7km/h 84% 0.00in /  0mm
12:05 46.3 °F /  7.9 °C 41.7 °F /  5.4 °C 30.11in /  1019.5hPa WSW 9.0mph /  14.5km/h 11.0mph /  17.7km/h 84% 0.00in /  0mm
12:10 46.1 °F /  7.8 °C 41.5 °F /  5.3 °C 30.12in /  1019.9hPa WSW 6.0mph /  9.7km/h 8.0mph /  12.9km/h 84% 0.00in /  0mm
12:15 45.9 °F /  7.7 °C 41.7 °F /  5.4 °C 30.12in /  1019.9hPa SW 7.0mph /  11.3km/h 12.0mph /  19.3km/h 85% 0.00in /  0mm
12:16 45.8 °F /  7.7 °C 41.5 °F /  5.3 °C 30.12in /  1019.9hPa SW 10.0mph /  16.1km/h 12.0mph /  19.3km/h 85% 0.00in /  0mm
12:20 45.5 °F /  7.5 °C 41.6 °F /  5.3 °C 30.12in /  1019.9hPa SW 9.0mph /  14.5km/h 15.0mph /  24.1km/h 86% 0.00in /  0mm
12:25 45.2 °F /  7.3 °C 41.3 °F /  5.2 °C 30.13in /  1020.2hPa WSW 8.0mph /  12.9km/h 12.0mph /  19.3km/h 86% 0.00in /  0mm
12:26 45.2 °F /  7.3 °C 41.6 °F /  5.3 °C 30.13in /  1020.2hPa SW 6.0mph /  9.7km/h 12.0mph /  19.3km/h 87% 0.00in /  0mm
12:30 45.1 °F /  7.3 °C 41.5 °F /  5.3 °C 30.13in /  1020.2hPa WSW 5.0mph /  8km/h 11.0mph /  17.7km/h 87% 0.00in /  0mm
12:31 45.1 °F /  7.3 °C 41.5 °F /  5.3 °C 30.13in /  1020.2hPa SW 6.0mph /  9.7km/h 11.0mph /  17.7km/h 87% 0.00in /  0mm
12:36 45.0 °F /  7.2 °C 41.4 °F /  5.2 °C 30.13in /  1020.2hPa SSW 3.0mph /  4.8km/h 11.0mph /  17.7km/h 87% 0.00in /  0mm
12:37 45.1 °F /  7.3 °C 41.8 °F /  5.4 °C 30.13in /  1020.2hPa SW 9.0mph /  14.5km/h 11.0mph /  17.7km/h 88% 0.00in /  0mm
12:41 45.0 °F /  7.2 °C 41.7 °F /  5.4 °C 30.13in /  1020.2hPa SW 7.0mph /  11.3km/h 9.0mph /  14.5km/h 88% 0.00in /  0mm
12:42 45.1 °F /  7.3 °C 41.8 °F /  5.4 °C 30.12in /  1019.9hPa SSW 5.0mph /  8km/h 9.0mph /  14.5km/h 88% 0.00in /  0mm
12:47 45.1 °F /  7.3 °C 41.5 °F /  5.3 °C 30.13in /  1020.2hPa SSW 6.0mph /  9.7km/h 9.0mph /  14.5km/h 87% 0.00in /  0mm
12:52 45.3 °F /  7.4 °C 41.7 °F /  5.4 °C 30.13in /  1020.2hPa SW 4.0mph /  6.4km/h 6.0mph /  9.7km/h 87% 0.00in /  0mm
12:53 45.4 °F /  7.4 °C 41.8 °F /  5.4 °C 30.13in /  1020.2hPa SSW 4.0mph /  6.4km/h 7.0mph /  11.3km/h 87% 0.00in /  0mm
12:54 45.4 °F /  7.4 °C 42.1 °F /  5.6 °C 30.12in /  1019.9hPa SSW 6.0mph /  9.7km/h 7.0mph /  11.3km/h 88% 0.00in /  0mm
12:57 45.6 °F /  7.6 °C 42.0 °F /  5.6 °C 30.13in /  1020.2hPa SSW 4.0mph /  6.4km/h 8.0mph /  12.9km/h 87% 0.00in /  0mm
12:58 45.6 °F /  7.6 °C 42.0 °F /  5.6 °C 30.13in /  1020.2hPa SW 4.0mph /  6.4km/h 8.0mph /  12.9km/h 87% 0.00in /  0mm
12:59 45.6 °F /  7.6 °C 42.0 °F /  5.6 °C 30.12in /  1019.9hPa SW 5.0mph /  8km/h 9.0mph /  14.5km/h 87% 0.00in /  0mm
13:03 45.7 °F /  7.6 °C 41.8 °F /  5.4 °C 30.13in /  1020.2hPa SSW 6.0mph /  9.7km/h 8.0mph /  12.9km/h 86% 0.00in /  0mm
13:04 45.7 °F /  7.6 °C 42.1 °F /  5.6 °C 30.13in /  1020.2hPa South 3.0mph /  4.8km/h 8.0mph /  12.9km/h 87% 0.00in /  0mm
13:05 45.7 °F /  7.6 °C 42.1 °F /  5.6 °C 30.13in /  1020.2hPa SW 4.0mph /  6.4km/h 8.0mph /  12.9km/h 87% 0.00in /  0mm
13:09 45.7 °F /  7.6 °C 41.8 °F /  5.4 °C 30.12in /  1019.9hPa SW 3.0mph /  4.8km/h 7.0mph /  11.3km/h 86% 0.00in /  0mm
13:14 45.8 °F /  7.7 °C 41.5 °F /  5.3 °C 30.12in /  1019.9hPa SSW 4.0mph /  6.4km/h 7.0mph /  11.3km/h 85% 0.00in /  0mm
13:15 45.8 °F /  7.7 °C 41.5 °F /  5.3 °C 30.12in /  1019.9hPa SW 4.0mph /  6.4km/h 7.0mph /  11.3km/h 85% 0.00in /  0mm
13:19 45.7 °F /  7.6 °C 41.5 °F /  5.3 °C 30.12in /  1019.9hPa WSW 11.0mph /  17.7km/h 11.0mph /  17.7km/h 85% 0.00in /  0mm
13:20 45.7 °F /  7.6 °C 41.2 °F /  5.1 °C 30.12in /  1019.9hPa WSW 8.0mph /  12.9km/h 11.0mph /  17.7km/h 84% 0.00in /  0mm
13:25 45.7 °F /  7.6 °C 41.2 °F /  5.1 °C 30.12in /  1019.9hPa WSW 9.0mph /  14.5km/h 11.0mph /  17.7km/h 84% 0.00in /  0mm
13:26 45.7 °F /  7.6 °C 41.2 °F /  5.1 °C 30.12in /  1019.9hPa WSW 6.0mph /  9.7km/h 11.0mph /  17.7km/h 84% 0.00in /  0mm
13:31 45.8 °F /  7.7 °C 41.5 °F /  5.3 °C 30.12in /  1019.9hPa West 5.0mph /  8km/h 8.0mph /  12.9km/h 85% 0.00in /  0mm
13:32 45.8 °F /  7.7 °C 41.5 °F /  5.3 °C 30.12in /  1019.9hPa SW 4.0mph /  6.4km/h 8.0mph /  12.9km/h 85% 0.00in /  0mm
13:33 45.9 °F /  7.7 °C 41.7 °F /  5.4 °C 30.12in /  1019.9hPa West 3.0mph /  4.8km/h 8.0mph /  12.9km/h 85% 0.00in /  0mm
13:35 46.0 °F /  7.8 °C 41.8 °F /  5.4 °C 30.12in /  1019.9hPa WSW 6.0mph /  9.7km/h 9.0mph /  14.5km/h 85% 0.00in /  0mm
13:36 46.0 °F /  7.8 °C 41.4 °F /  5.2 °C 30.12in /  1019.9hPa SW 11.0mph /  17.7km/h 11.0mph /  17.7km/h 84% 0.00in /  0mm
13:38 46.1 °F /  7.8 °C 41.5 °F /  5.3 °C 30.12in /  1019.9hPa SW 3.0mph /  4.8km/h 11.0mph /  17.7km/h 84% 0.00in /  0mm
13:40 46.3 °F /  7.9 °C 42.0 °F /  5.6 °C 30.12in /  1019.9hPa WSW 4.0mph /  6.4km/h 8.0mph /  12.9km/h 85% 0.00in /  0mm
13:41 46.4 °F /  8 °C 42.1 °F /  5.6 °C 30.12in /  1019.9hPa WSW 6.0mph /  9.7km/h 8.0mph /  12.9km/h 85% 0.00in /  0mm
13:43 46.4 °F /  8 °C 41.5 °F /  5.3 °C 30.12in /  1019.9hPa WSW 6.0mph /  9.7km/h 10.0mph /  16.1km/h 83% 0.00in /  0mm
13:46 46.4 °F /  8 °C 41.8 °F /  5.4 °C 30.12in /  1019.9hPa SW 5.0mph /  8km/h 9.0mph /  14.5km/h 84% 0.00in /  0mm
13:48 46.4 °F /  8 °C 41.8 °F /  5.4 °C 30.12in /  1019.9hPa West 6.0mph /  9.7km/h 7.0mph /  11.3km/h 84% 0.00in /  0mm
13:51 46.4 °F /  8 °C 41.8 °F /  5.4 °C 30.12in /  1019.9hPa WSW 8.0mph /  12.9km/h 8.0mph /  12.9km/h 84% 0.00in /  0mm
13:53 46.4 °F /  8 °C 41.5 °F /  5.3 °C 30.12in /  1019.9hPa West 3.0mph /  4.8km/h 8.0mph /  12.9km/h 83% 0.00in /  0mm
13:54 46.4 °F /  8 °C 41.8 °F /  5.4 °C 30.12in /  1019.9hPa WNW 4.0mph /  6.4km/h 8.0mph /  12.9km/h 84% 0.00in /  0mm
13:57 46.5 °F /  8.1 °C 41.6 °F /  5.3 °C 30.12in /  1019.9hPa West 7.0mph /  11.3km/h 7.0mph /  11.3km/h 83% 0.00in /  0mm
13:58 46.5 °F /  8.1 °C 41.3 °F /  5.2 °C 30.12in /  1019.9hPa WSW 6.0mph /  9.7km/h 7.0mph /  11.3km/h 82% 0.00in /  0mm
13:59 46.4 °F /  8 °C 41.5 °F /  5.3 °C 30.12in /  1019.9hPa West 9.0mph /  14.5km/h 11.0mph /  17.7km/h 83% 0.00in /  0mm
14:03 46.5 °F /  8.1 °C 41.6 °F /  5.3 °C 30.12in /  1019.9hPa West 3.0mph /  4.8km/h 8.0mph /  12.9km/h 83% 0.00in /  0mm
14:04 46.5 °F /  8.1 °C 41.6 °F /  5.3 °C 30.12in /  1019.9hPa WSW 5.0mph /  8km/h 8.0mph /  12.9km/h 83% 0.00in /  0mm
14:08 46.6 °F /  8.1 °C 41.1 °F /  5.1 °C 30.12in /  1019.9hPa WSW 6.0mph /  9.7km/h 10.0mph /  16.1km/h 81% 0.00in /  0mm
14:09 46.7 °F /  8.2 °C 41.5 °F /  5.3 °C 30.12in /  1019.9hPa SW 8.0mph /  12.9km/h 10.0mph /  16.1km/h 82% 0.00in /  0mm
14:13 47.0 °F /  8.3 °C 41.5 °F /  5.3 °C 30.12in /  1019.9hPa SW 5.0mph /  8km/h 7.0mph /  11.3km/h 81% 0.00in /  0mm
14:14 47.1 °F /  8.4 °C 41.6 °F /  5.3 °C 30.12in /  1019.9hPa WSW 6.0mph /  9.7km/h 7.0mph /  11.3km/h 81% 0.00in /  0mm
14:19 47.3 °F /  8.5 °C 41.5 °F /  5.3 °C 30.12in /  1019.9hPa West 4.0mph /  6.4km/h 10.0mph /  16.1km/h 80% 0.00in /  0mm
14:20 47.4 °F /  8.6 °C 41.2 °F /  5.1 °C 30.12in /  1019.9hPa WSW 7.0mph /  11.3km/h 10.0mph /  16.1km/h 79% 0.00in /  0mm
14:25 47.5 °F /  8.6 °C 41.0 °F /  5 °C 30.11in /  1019.5hPa SW 7.0mph /  11.3km/h 9.0mph /  14.5km/h 78% 0.00in /  0mm
14:26 47.5 °F /  8.6 °C 41.0 °F /  5 °C 30.11in /  1019.5hPa SW 6.0mph /  9.7km/h 9.0mph /  14.5km/h 78% 0.00in /  0mm
14:28 47.4 °F /  8.6 °C 41.5 °F /  5.3 °C 30.11in /  1019.5hPa West 8.0mph /  12.9km/h 9.0mph /  14.5km/h 80% 0.00in /  0mm
14:31 47.2 °F /  8.4 °C 40.7 °F /  4.8 °C 30.11in /  1019.5hPa SW 6.0mph /  9.7km/h 12.0mph /  19.3km/h 78% 0.00in /  0mm
14:34 47.2 °F /  8.4 °C 41.7 °F /  5.4 °C 30.11in /  1019.5hPa WSW 6.0mph /  9.7km/h 8.0mph /  12.9km/h 81% 0.00in /  0mm
14:36 47.2 °F /  8.4 °C 41.4 °F /  5.2 °C 30.11in /  1019.5hPa West 4.0mph /  6.4km/h 10.0mph /  16.1km/h 80% 0.00in /  0mm
14:37 47.2 °F /  8.4 °C 41.7 °F /  5.4 °C 30.11in /  1019.5hPa West 8.0mph /  12.9km/h 10.0mph /  16.1km/h 81% 0.00in /  0mm
14:41 47.1 °F /  8.4 °C 40.9 °F /  4.9 °C 30.11in /  1019.5hPa West 6.0mph /  9.7km/h 8.0mph /  12.9km/h 79% 0.00in /  0mm
14:42 47.1 °F /  8.4 °C 41.3 °F /  5.2 °C 30.11in /  1019.5hPa West 6.0mph /  9.7km/h 8.0mph /  12.9km/h 80% 0.00in /  0mm
14:47 47.5 °F /  8.6 °C 42.0 °F /  5.6 °C 30.11in /  1019.5hPa West 3.0mph /  4.8km/h 9.0mph /  14.5km/h 81% 0.00in /  0mm
14:48 47.6 °F /  8.7 °C 42.4 °F /  5.8 °C 30.10in /  1019.2hPa West 4.0mph /  6.4km/h 9.0mph /  14.5km/h 82% 0.00in /  0mm
14:52 48.0 °F /  8.9 °C 41.8 °F /  5.4 °C 30.10in /  1019.2hPa SW 7.0mph /  11.3km/h 9.0mph /  14.5km/h 79% 0.00in /  0mm
14:53 48.0 °F /  8.9 °C 41.5 °F /  5.3 °C 30.10in /  1019.2hPa WSW 5.0mph /  8km/h 8.0mph /  12.9km/h 78% 0.00in /  0mm
14:54 48.0 °F /  8.9 °C 42.1 °F /  5.6 °C 30.10in /  1019.2hPa WSW 5.0mph /  8km/h 8.0mph /  12.9km/h 80% 0.00in /  0mm
14:58 48.0 °F /  8.9 °C 41.2 °F /  5.1 °C 30.11in /  1019.5hPa West 8.0mph /  12.9km/h 9.0mph /  14.5km/h 77% 0.00in /  0mm
15:03 47.8 °F /  8.8 °C 41.6 °F /  5.3 °C 30.11in /  1019.5hPa WSW 7.0mph /  11.3km/h 7.0mph /  11.3km/h 79% 0.00in /  0mm
15:04 47.8 °F /  8.8 °C 41.9 °F /  5.5 °C 30.11in /  1019.5hPa WSW 9.0mph /  14.5km/h 9.0mph /  14.5km/h 80% 0.00in /  0mm
15:08 47.4 °F /  8.6 °C 40.9 °F /  4.9 °C 30.11in /  1019.5hPa West 4.0mph /  6.4km/h 12.0mph /  19.3km/h 78% 0.00in /  0mm
15:09 47.4 °F /  8.6 °C 40.9 °F /  4.9 °C 30.11in /  1019.5hPa West 5.0mph /  8km/h 12.0mph /  19.3km/h 78% 0.00in /  0mm
15:14 47.4 °F /  8.6 °C 41.2 °F /  5.1 °C 30.11in /  1019.5hPa West 4.0mph /  6.4km/h 9.0mph /  14.5km/h 79% 0.00in /  0mm
15:19 47.6 °F /  8.7 °C 41.4 °F /  5.2 °C 30.11in /  1019.5hPa WSW 5.0mph /  8km/h 13.0mph /  20.9km/h 79% 0.00in /  0mm
15:24 47.7 °F /  8.7 °C 41.5 °F /  5.3 °C 30.10in /  1019.2hPa SW 6.0mph /  9.7km/h 9.0mph /  14.5km/h 79% 0.00in /  0mm
15:25 47.7 °F /  8.7 °C 41.2 °F /  5.1 °C 30.10in /  1019.2hPa SW 5.0mph /  8km/h 9.0mph /  14.5km/h 78% 0.00in /  0mm
15:29 48.3 °F /  9.1 °C 42.4 °F /  5.8 °C 30.10in /  1019.2hPa SSW 5.0mph /  8km/h 8.0mph /  12.9km/h 80% 0.00in /  0mm
15:30 48.3 °F /  9.1 °C 42.4 °F /  5.8 °C 30.10in /  1019.2hPa SW 5.0mph /  8km/h 8.0mph /  12.9km/h 80% 0.00in /  0mm
15:33 48.3 °F /  9.1 °C 41.4 °F /  5.2 °C 30.10in /  1019.2hPa SSW 10.0mph /  16.1km/h 10.0mph /  16.1km/h 77% 0.00in /  0mm
15:35 48.3 °F /  9.1 °C 41.8 °F /  5.4 °C 30.10in /  1019.2hPa WSW 5.0mph /  8km/h 10.0mph /  16.1km/h 78% 0.00in /  0mm
15:36 48.3 °F /  9.1 °C 41.4 °F /  5.2 °C 30.10in /  1019.2hPa WSW 4.0mph /  6.4km/h 10.0mph /  16.1km/h 77% 0.00in /  0mm
15:37 48.4 °F /  9.1 °C 41.5 °F /  5.3 °C 30.10in /  1019.2hPa SW 5.0mph /  8km/h 7.0mph /  11.3km/h 77% 0.00in /  0mm
15:40 48.5 °F /  9.2 °C 41.6 °F /  5.3 °C 30.10in /  1019.2hPa SW 9.0mph /  14.5km/h 9.0mph /  14.5km/h 77% 0.00in /  0mm
15:42 48.6 °F /  9.2 °C 41.7 °F /  5.4 °C 30.10in /  1019.2hPa SW 4.0mph /  6.4km/h 9.0mph /  14.5km/h 77% 0.00in /  0mm
15:47 48.5 °F /  9.2 °C 41.0 °F /  5 °C 30.10in /  1019.2hPa WSW 8.0mph /  12.9km/h 11.0mph /  17.7km/h 75% 0.00in /  0mm
15:48 48.5 °F /  9.2 °C 41.0 °F /  5 °C 30.10in /  1019.2hPa WSW 8.0mph /  12.9km/h 11.0mph /  17.7km/h 75% 0.00in /  0mm
15:53 48.1 °F /  8.9 °C 41.2 °F /  5.1 °C 30.10in /  1019.2hPa WSW 5.0mph /  8km/h 9.0mph /  14.5km/h 77% 0.00in /  0mm
15:54 48.1 °F /  8.9 °C 41.2 °F /  5.1 °C 30.10in /  1019.2hPa SW 4.0mph /  6.4km/h 9.0mph /  14.5km/h 77% 0.00in /  0mm
15:58 48.1 °F /  8.9 °C 41.2 °F /  5.1 °C 30.10in /  1019.2hPa SSW 7.0mph /  11.3km/h 8.0mph /  12.9km/h 77% 0.00in /  0mm
15:59 48.1 °F /  8.9 °C 41.6 °F /  5.3 °C 30.10in /  1019.2hPa South 5.0mph /  8km/h 8.0mph /  12.9km/h 78% 0.00in /  0mm
16:04 48.1 °F /  8.9 °C 41.9 °F /  5.5 °C 30.10in /  1019.2hPa SSW 4.0mph /  6.4km/h 6.0mph /  9.7km/h 79% 0.00in /  0mm
16:09 48.2 °F /  9 °C 41.7 °F /  5.4 °C 30.10in /  1019.2hPa WSW 8.0mph /  12.9km/h 8.0mph /  12.9km/h 78% 0.00in /  0mm
16:10 48.1 °F /  8.9 °C 41.2 °F /  5.1 °C 30.10in /  1019.2hPa SW 5.0mph /  8km/h 8.0mph /  12.9km/h 77% 0.00in /  0mm
16:14 48.1 °F /  8.9 °C 40.9 °F /  4.9 °C 30.10in /  1019.2hPa SW 6.0mph /  9.7km/h 8.0mph /  12.9km/h 76% 0.00in /  0mm
16:15 48.1 °F /  8.9 °C 40.9 °F /  4.9 °C 30.10in /  1019.2hPa SSW 6.0mph /  9.7km/h 8.0mph /  12.9km/h 76% 0.00in /  0mm
16:20 48.2 °F /  9 °C 41.0 °F /  5 °C 30.10in /  1019.2hPa WSW 6.0mph /  9.7km/h 10.0mph /  16.1km/h 76% 0.00in /  0mm
16:22 48.2 °F /  9 °C 41.0 °F /  5 °C 30.10in /  1019.2hPa SSW 5.0mph /  8km/h 9.0mph /  14.5km/h 76% 0.00in /  0mm
16:26 48.3 °F /  9.1 °C 41.4 °F /  5.2 °C 30.10in /  1019.2hPa SW 5.0mph /  8km/h 7.0mph /  11.3km/h 77% 0.00in /  0mm
16:27 48.3 °F /  9.1 °C 41.4 °F /  5.2 °C 30.10in /  1019.2hPa SW 4.0mph /  6.4km/h 7.0mph /  11.3km/h 77% 0.00in /  0mm
16:28 48.3 °F /  9.1 °C 41.4 °F /  5.2 °C 30.10in /  1019.2hPa SW 7.0mph /  11.3km/h 9.0mph /  14.5km/h 77% 0.00in /  0mm
16:29 48.2 °F /  9 °C 40.7 °F /  4.8 °C 30.10in /  1019.2hPa WSW 6.0mph /  9.7km/h 9.0mph /  14.5km/h 75% 0.00in /  0mm
16:31 48.2 °F /  9 °C 41.3 °F /  5.2 °C 30.10in /  1019.2hPa WSW 9.0mph /  14.5km/h 9.0mph /  14.5km/h 77% 0.00in /  0mm
16:32 48.2 °F /  9 °C 41.3 °F /  5.2 °C 30.10in /  1019.2hPa SSW 6.0mph /  9.7km/h 9.0mph /  14.5km/h 77% 0.00in /  0mm
16:37 48.2 °F /  9 °C 41.3 °F /  5.2 °C 30.10in /  1019.2hPa WSW 5.0mph /  8km/h 7.0mph /  11.3km/h 77% 0.00in /  0mm
16:38 48.2 °F /  9 °C 41.0 °F /  5 °C 30.10in /  1019.2hPa SW 7.0mph /  11.3km/h 7.0mph /  11.3km/h 76% 0.00in /  0mm
16:42 48.2 °F /  9 °C 41.0 °F /  5 °C 30.11in /  1019.5hPa West 7.0mph /  11.3km/h 8.0mph /  12.9km/h 76% 0.00in /  0mm
16:43 48.2 °F /  9 °C 41.3 °F /  5.2 °C 30.11in /  1019.5hPa West 5.0mph /  8km/h 8.0mph /  12.9km/h 77% 0.00in /  0mm
16:47 48.3 °F /  9.1 °C 41.4 °F /  5.2 °C 30.11in /  1019.5hPa SW 8.0mph /  12.9km/h 8.0mph /  12.9km/h 77% 0.00in /  0mm
16:48 48.3 °F /  9.1 °C 41.4 °F /  5.2 °C 30.11in /  1019.5hPa West 7.0mph /  11.3km/h 8.0mph /  12.9km/h 77% 0.00in /  0mm
16:52 48.2 °F /  9 °C 40.7 °F /  4.8 °C 30.11in /  1019.5hPa SW 6.0mph /  9.7km/h 11.0mph /  17.7km/h 75% 0.00in /  0mm
16:53 48.2 °F /  9 °C 40.7 °F /  4.8 °C 30.11in /  1019.5hPa WSW 7.0mph /  11.3km/h 11.0mph /  17.7km/h 75% 0.00in /  0mm
16:57 48.1 °F /  8.9 °C 40.9 °F /  4.9 °C 30.11in /  1019.5hPa WSW 4.0mph /  6.4km/h 13.0mph /  20.9km/h 76% 0.00in /  0mm
16:58 48.1 °F /  8.9 °C 41.2 °F /  5.1 °C 30.11in /  1019.5hPa West 3.0mph /  4.8km/h 11.0mph /  17.7km/h 77% 0.00in /  0mm
17:02 48.3 °F /  9.1 °C 41.4 °F /  5.2 °C 30.11in /  1019.5hPa WSW 4.0mph /  6.4km/h 7.0mph /  11.3km/h 77% 0.00in /  0mm
17:03 48.3 °F /  9.1 °C 41.1 °F /  5.1 °C 30.11in /  1019.5hPa WSW 5.0mph /  8km/h 7.0mph /  11.3km/h 76% 0.00in /  0mm
17:08 48.1 °F /  8.9 °C 40.9 °F /  4.9 °C 30.11in /  1019.5hPa WSW 6.0mph /  9.7km/h 7.0mph /  11.3km/h 76% 0.00in /  0mm
17:09 48.1 °F /  8.9 °C 40.9 °F /  4.9 °C 30.11in /  1019.5hPa WSW 5.0mph /  8km/h 7.0mph /  11.3km/h 76% 0.00in /  0mm
17:13 48.0 °F /  8.9 °C 40.8 °F /  4.9 °C 30.11in /  1019.5hPa West 7.0mph /  11.3km/h 8.0mph /  12.9km/h 76% 0.00in /  0mm
17:14 48.0 °F /  8.9 °C 40.8 °F /  4.9 °C 30.11in /  1019.5hPa WSW 7.0mph /  11.3km/h 8.0mph /  12.9km/h 76% 0.00in /  0mm
17:19 47.9 °F /  8.8 °C 40.7 °F /  4.8 °C 30.11in /  1019.5hPa West 4.0mph /  6.4km/h 8.0mph /  12.9km/h 76% 0.00in /  0mm
17:21 47.8 °F /  8.8 °C 41.0 °F /  5 °C 30.11in /  1019.5hPa WSW 6.0mph /  9.7km/h 8.0mph /  12.9km/h 77% 0.00in /  0mm
17:24 47.9 °F /  8.8 °C 41.0 °F /  5 °C 30.11in /  1019.5hPa WSW 6.0mph /  9.7km/h 9.0mph /  14.5km/h 77% 0.00in /  0mm
17:27 47.9 °F /  8.8 °C 40.7 °F /  4.8 °C 30.11in /  1019.5hPa WSW 6.0mph /  9.7km/h 8.0mph /  12.9km/h 76% 0.00in /  0mm
17:29 47.9 °F /  8.8 °C 41.0 °F /  5 °C 30.12in /  1019.9hPa SW 4.0mph /  6.4km/h 9.0mph /  14.5km/h 77% 0.00in /  0mm
17:30 47.9 °F /  8.8 °C 41.0 °F /  5 °C 30.12in /  1019.9hPa West 7.0mph /  11.3km/h 9.0mph /  14.5km/h 77% 0.00in /  0mm
17:35 48.0 °F /  8.9 °C 41.2 °F /  5.1 °C 30.12in /  1019.9hPa West 8.0mph /  12.9km/h 8.0mph /  12.9km/h 77% 0.00in /  0mm
17:36 47.9 °F /  8.8 °C 40.7 °F /  4.8 °C 30.12in /  1019.9hPa West 8.0mph /  12.9km/h 8.0mph /  12.9km/h 76% 0.00in /  0mm
17:40 47.8 °F /  8.8 °C 41.0 °F /  5 °C 30.12in /  1019.9hPa WSW 3.0mph /  4.8km/h 6.0mph /  9.7km/h 77% 0.00in /  0mm
17:41 47.8 °F /  8.8 °C 41.0 °F /  5 °C 30.12in /  1019.9hPa WNW 6.0mph /  9.7km/h 6.0mph /  9.7km/h 77% 0.00in /  0mm
17:45 47.9 °F /  8.8 °C 41.4 °F /  5.2 °C 30.12in /  1019.9hPa SW 3.0mph /  4.8km/h 5.0mph /  8km/h 78% 0.00in /  0mm
17:46 47.8 °F /  8.8 °C 41.0 °F /  5 °C 30.12in /  1019.9hPa West 5.0mph /  8km/h 9.0mph /  14.5km/h 77% 0.00in /  0mm
17:50 47.9 °F /  8.8 °C 41.4 °F /  5.2 °C 30.12in /  1019.9hPa West 7.0mph /  11.3km/h 7.0mph /  11.3km/h 78% 0.00in /  0mm
17:51 48.0 °F /  8.9 °C 41.2 °F /  5.1 °C 30.12in /  1019.9hPa SW 7.0mph /  11.3km/h 8.0mph /  12.9km/h 77% 0.00in /  0mm
17:55 47.8 °F /  8.8 °C 41.3 °F /  5.2 °C 30.12in /  1019.9hPa WSW 7.0mph /  11.3km/h 7.0mph /  11.3km/h 78% 0.00in /  0mm
17:56 47.8 °F /  8.8 °C 41.3 °F /  5.2 °C 30.12in /  1019.9hPa West 4.0mph /  6.4km/h 7.0mph /  11.3km/h 78% 0.00in /  0mm
18:01 47.9 °F /  8.8 °C 41.4 °F /  5.2 °C 30.12in /  1019.9hPa WSW 6.0mph /  9.7km/h 6.0mph /  9.7km/h 78% 0.00in /  0mm
18:06 47.9 °F /  8.8 °C 41.4 °F /  5.2 °C 30.12in /  1019.9hPa WNW 3.0mph /  4.8km/h 6.0mph /  9.7km/h 78% 0.00in /  0mm
18:07 47.9 °F /  8.8 °C 41.0 °F /  5 °C 30.12in /  1019.9hPa West 4.0mph /  6.4km/h 6.0mph /  9.7km/h 77% 0.00in /  0mm
18:11 47.8 °F /  8.8 °C 40.6 °F /  4.8 °C 30.12in /  1019.9hPa West 4.0mph /  6.4km/h 9.0mph /  14.5km/h 76% 0.00in /  0mm
18:12 47.7 °F /  8.7 °C 40.5 °F /  4.7 °C 30.12in /  1019.9hPa West 2.0mph /  3.2km/h 6.0mph /  9.7km/h 76% 0.00in /  0mm
18:13 47.7 °F /  8.7 °C 40.8 °F /  4.9 °C 30.12in /  1019.9hPa West 2.0mph /  3.2km/h 6.0mph /  9.7km/h 77% 0.00in /  0mm
18:17 47.7 °F /  8.7 °C 40.8 °F /  4.9 °C 30.12in /  1019.9hPa WNW 6.0mph /  9.7km/h 7.0mph /  11.3km/h 77% 0.00in /  0mm
18:18 47.6 °F /  8.7 °C 40.8 °F /  4.9 °C 30.13in /  1020.2hPa WNW 4.0mph /  6.4km/h 7.0mph /  11.3km/h 77% 0.00in /  0mm
18:23 47.5 °F /  8.6 °C 41.0 °F /  5 °C 30.13in /  1020.2hPa WNW 5.0mph /  8km/h 6.0mph /  9.7km/h 78% 0.00in /  0mm
18:28 47.4 °F /  8.6 °C 40.9 °F /  4.9 °C 30.13in /  1020.2hPa WSW 3.0mph /  4.8km/h 6.0mph /  9.7km/h 78% 0.00in /  0mm
18:33 47.3 °F /  8.5 °C 41.1 °F /  5.1 °C 30.14in /  1020.5hPa WSW 5.0mph /  8km/h 5.0mph /  8km/h 79% 0.00in /  0mm
18:34 47.3 °F /  8.5 °C 41.1 °F /  5.1 °C 30.14in /  1020.5hPa West 4.0mph /  6.4km/h 6.0mph /  9.7km/h 79% 0.00in /  0mm
18:36 47.3 °F /  8.5 °C 41.1 °F /  5.1 °C 30.14in /  1020.5hPa West 4.0mph /  6.4km/h 6.0mph /  9.7km/h 79% 0.00in /  0mm
18:38 47.2 °F /  8.4 °C 41.0 °F /  5 °C 30.14in /  1020.5hPa West 3.0mph /  4.8km/h 6.0mph /  9.7km/h 79% 0.00in /  0mm
18:39 47.2 °F /  8.4 °C 41.0 °F /  5 °C 30.14in /  1020.5hPa NW 5.0mph /  8km/h 6.0mph /  9.7km/h 79% 0.00in /  0mm
18:42 47.1 °F /  8.4 °C 40.9 °F /  4.9 °C 30.14in /  1020.5hPa NW 4.0mph /  6.4km/h 9.0mph /  14.5km/h 79% 0.00in /  0mm
18:44 47.0 °F /  8.3 °C 40.8 °F /  4.9 °C 30.14in /  1020.5hPa WNW 6.0mph /  9.7km/h 7.0mph /  11.3km/h 79% 0.00in /  0mm
18:47 46.9 °F /  8.3 °C 41.1 °F /  5.1 °C 30.14in /  1020.5hPa WNW 9.0mph /  14.5km/h 10.0mph /  16.1km/h 80% 0.00in /  0mm
18:48 46.7 °F /  8.2 °C 40.9 °F /  4.9 °C 30.15in /  1020.9hPa WNW 6.0mph /  9.7km/h 10.0mph /  16.1km/h 80% 0.00in /  0mm
18:49 46.7 °F /  8.2 °C 40.9 °F /  4.9 °C 30.15in /  1020.9hPa WNW 4.0mph /  6.4km/h 10.0mph /  16.1km/h 80% 0.00in /  0mm
18:52 46.6 °F /  8.1 °C 40.8 °F /  4.9 °C 30.15in /  1020.9hPa WNW 4.0mph /  6.4km/h 6.0mph /  9.7km/h 80% 0.00in /  0mm
18:54 46.5 °F /  8.1 °C 40.7 °F /  4.8 °C 30.15in /  1020.9hPa WNW 5.0mph /  8km/h 7.0mph /  11.3km/h 80% 0.00in /  0mm
18:55 46.5 °F /  8.1 °C 40.7 °F /  4.8 °C 30.15in /  1020.9hPa WNW 6.0mph /  9.7km/h 7.0mph /  11.3km/h 80% 0.00in /  0mm
18:57 46.5 °F /  8.1 °C 40.7 °F /  4.8 °C 30.15in /  1020.9hPa NW 6.0mph /  9.7km/h 9.0mph /  14.5km/h 80% 0.00in /  0mm
18:59 46.4 °F /  8 °C 40.6 °F /  4.8 °C 30.15in /  1020.9hPa WNW 4.0mph /  6.4km/h 9.0mph /  14.5km/h 80% 0.00in /  0mm
19:00 46.4 °F /  8 °C 40.6 °F /  4.8 °C 30.15in /  1020.9hPa WNW 4.0mph /  6.4km/h 9.0mph /  14.5km/h 80% 0.00in /  0mm
19:04 46.3 °F /  7.9 °C 40.5 °F /  4.7 °C 30.15in /  1020.9hPa WNW 4.0mph /  6.4km/h 5.0mph /  8km/h 80% 0.00in /  0mm
19:05 46.3 °F /  7.9 °C 40.5 °F /  4.7 °C 30.15in /  1020.9hPa West 2.0mph /  3.2km/h 5.0mph /  8km/h 80% 0.00in /  0mm
19:08 46.2 °F /  7.9 °C 40.4 °F /  4.7 °C 30.15in /  1020.9hPa WNW 4.0mph /  6.4km/h 7.0mph /  11.3km/h 80% 0.00in /  0mm
19:10 46.2 °F /  7.9 °C 40.4 °F /  4.7 °C 30.15in /  1020.9hPa WNW 5.0mph /  8km/h 7.0mph /  11.3km/h 80% 0.00in /  0mm
19:13 46.2 °F /  7.9 °C 40.4 °F /  4.7 °C 30.16in /  1021.2hPa West 6.0mph /  9.7km/h 6.0mph /  9.7km/h 80% 0.00in /  0mm
19:16 46.1 °F /  7.8 °C 40.3 °F /  4.6 °C 30.16in /  1021.2hPa NNW 5.0mph /  8km/h 6.0mph /  9.7km/h 80% 0.00in /  0mm
19:19 46.1 °F /  7.8 °C 40.6 °F /  4.8 °C 30.16in /  1021.2hPa WNW 2.0mph /  3.2km/h 5.0mph /  8km/h 81% 0.00in /  0mm
19:22 46.1 °F /  7.8 °C 40.6 °F /  4.8 °C 30.16in /  1021.2hPa WNW 5.0mph /  8km/h 6.0mph /  9.7km/h 81% 0.00in /  0mm
19:24 46.1 °F /  7.8 °C 40.3 °F /  4.6 °C 30.16in /  1021.2hPa West 4.0mph /  6.4km/h 5.0mph /  8km/h 80% 0.00in /  0mm
19:29 45.9 °F /  7.7 °C 40.1 °F /  4.5 °C 30.16in /  1021.2hPa WNW 5.0mph /  8km/h 9.0mph /  14.5km/h 80% 0.00in /  0mm
19:31 45.9 °F /  7.7 °C 40.1 °F /  4.5 °C 30.16in /  1021.2hPa WNW 7.0mph /  11.3km/h 9.0mph /  14.5km/h 80% 0.00in /  0mm
19:35 45.7 °F /  7.6 °C 39.9 °F /  4.4 °C 30.16in /  1021.2hPa NW 6.0mph /  9.7km/h 8.0mph /  12.9km/h 80% 0.00in /  0mm
19:36 45.6 °F /  7.6 °C 39.8 °F /  4.3 °C 30.16in /  1021.2hPa WNW 5.0mph /  8km/h 8.0mph /  12.9km/h 80% 0.00in /  0mm
19:40 45.5 °F /  7.5 °C 40.0 °F /  4.4 °C 30.16in /  1021.2hPa WNW 4.0mph /  6.4km/h 9.0mph /  14.5km/h 81% 0.00in /  0mm
19:41 45.5 °F /  7.5 °C 40.0 °F /  4.4 °C 30.16in /  1021.2hPa WNW 5.0mph /  8km/h 5.0mph /  8km/h 81% 0.00in /  0mm
19:42 45.5 °F /  7.5 °C 40.0 °F /  4.4 °C 30.16in /  1021.2hPa WNW 5.0mph /  8km/h 5.0mph /  8km/h 81% 0.00in /  0mm
19:46 45.3 °F /  7.4 °C 39.8 °F /  4.3 °C 30.16in /  1021.2hPa WNW 6.0mph /  9.7km/h 9.0mph /  14.5km/h 81% 0.00in /  0mm
19:52 45.2 °F /  7.3 °C 39.4 °F /  4.1 °C 30.17in /  1021.6hPa WNW 4.0mph /  6.4km/h 8.0mph /  12.9km/h 80% 0.00in /  0mm
19:53 45.1 °F /  7.3 °C 39.6 °F /  4.2 °C 30.17in /  1021.6hPa NW 4.0mph /  6.4km/h 8.0mph /  12.9km/h 81% 0.00in /  0mm
19:57 45.1 °F /  7.3 °C 39.6 °F /  4.2 °C 30.17in /  1021.6hPa WNW 6.0mph /  9.7km/h 9.0mph /  14.5km/h 81% 0.00in /  0mm
19:58 45.1 °F /  7.3 °C 39.6 °F /  4.2 °C 30.17in /  1021.6hPa WNW 4.0mph /  6.4km/h 9.0mph /  14.5km/h 81% 0.00in /  0mm
20:02 45.0 °F /  7.2 °C 39.5 °F /  4.2 °C 30.17in /  1021.6hPa WNW 6.0mph /  9.7km/h 8.0mph /  12.9km/h 81% 0.00in /  0mm
20:03 45.0 °F /  7.2 °C 39.5 °F /  4.2 °C 30.17in /  1021.6hPa WNW 5.0mph /  8km/h 8.0mph /  12.9km/h 81% 0.00in /  0mm
20:04 44.9 °F /  7.2 °C 39.4 °F /  4.1 °C 30.17in /  1021.6hPa WNW 5.0mph /  8km/h 8.0mph /  12.9km/h 81% 0.00in /  0mm
20:07 44.9 °F /  7.2 °C 39.4 °F /  4.1 °C 30.18in /  1021.9hPa West 4.0mph /  6.4km/h 6.0mph /  9.7km/h 81% 0.00in /  0mm
20:09 44.9 °F /  7.2 °C 39.4 °F /  4.1 °C 30.18in /  1021.9hPa WNW 4.0mph /  6.4km/h 5.0mph /  8km/h 81% 0.00in /  0mm
20:12 44.8 °F /  7.1 °C 39.0 °F /  3.9 °C 30.18in /  1021.9hPa WNW 4.0mph /  6.4km/h 9.0mph /  14.5km/h 80% 0.00in /  0mm
20:14 44.8 °F /  7.1 °C 39.3 °F /  4.1 °C 30.18in /  1021.9hPa NW 4.0mph /  6.4km/h 9.0mph /  14.5km/h 81% 0.00in /  0mm
20:18 44.7 °F /  7.1 °C 39.2 °F /  4 °C 30.18in /  1021.9hPa WNW 3.0mph /  4.8km/h 5.0mph /  8km/h 81% 0.00in /  0mm
20:20 44.7 °F /  7.1 °C 39.2 °F /  4 °C 30.18in /  1021.9hPa WNW 7.0mph /  11.3km/h 7.0mph /  11.3km/h 81% 0.00in /  0mm
20:23 44.6 °F /  7 °C 39.1 °F /  3.9 °C 30.18in /  1021.9hPa WNW 4.0mph /  6.4km/h 7.0mph /  11.3km/h 81% 0.00in /  0mm
20:25 44.6 °F /  7 °C 39.1 °F /  3.9 °C 30.18in /  1021.9hPa NW 4.0mph /  6.4km/h 6.0mph /  9.7km/h 81% 0.00in /  0mm
20:28 44.5 °F /  6.9 °C 39.0 °F /  3.9 °C 30.18in /  1021.9hPa West 4.0mph /  6.4km/h 6.0mph /  9.7km/h 81% 0.00in /  0mm
20:29 44.5 °F /  6.9 °C 39.0 °F /  3.9 °C 30.18in /  1021.9hPa West 3.0mph /  4.8km/h 5.0mph /  8km/h 81% 0.00in /  0mm
20:33 44.5 °F /  6.9 °C 39.0 °F /  3.9 °C 30.18in /  1021.9hPa WNW 5.0mph /  8km/h 5.0mph /  8km/h 81% 0.00in /  0mm
20:34 44.5 °F /  6.9 °C 39.0 °F /  3.9 °C 30.18in /  1021.9hPa WNW 3.0mph /  4.8km/h 5.0mph /  8km/h 81% 0.00in /  0mm
20:35 44.4 °F /  6.9 °C 38.9 °F /  3.8 °C 30.18in /  1021.9hPa WNW 3.0mph /  4.8km/h 5.0mph /  8km/h 81% 0.00in /  0mm
20:39 44.4 °F /  6.9 °C 38.9 °F /  3.8 °C 30.18in /  1021.9hPa WNW 4.0mph /  6.4km/h 6.0mph /  9.7km/h 81% 0.00in /  0mm
20:44 44.4 °F /  6.9 °C 38.9 °F /  3.8 °C 30.18in /  1021.9hPa West 4.0mph /  6.4km/h 7.0mph /  11.3km/h 81% 0.00in /  0mm
20:45 44.4 °F /  6.9 °C 38.9 °F /  3.8 °C 30.18in /  1021.9hPa WNW 6.0mph /  9.7km/h 7.0mph /  11.3km/h 81% 0.00in /  0mm
20:49 44.4 °F /  6.9 °C 38.9 °F /  3.8 °C 30.18in /  1021.9hPa West 2.0mph /  3.2km/h 3.0mph /  4.8km/h 81% 0.00in /  0mm
20:50 44.3 °F /  6.8 °C 38.8 °F /  3.8 °C 30.19in /  1022.2hPa WNW 3.0mph /  4.8km/h 4.0mph /  6.4km/h 81% 0.00in /  0mm
20:51 44.3 °F /  6.8 °C 38.8 °F /  3.8 °C 30.19in /  1022.2hPa WSW 4.0mph /  6.4km/h 5.0mph /  8km/h 81% 0.00in /  0mm
20:54 44.3 °F /  6.8 °C 38.8 °F /  3.8 °C 30.19in /  1022.2hPa West 4.0mph /  6.4km/h 5.0mph /  8km/h 81% 0.00in /  0mm
20:55 44.3 °F /  6.8 °C 38.8 °F /  3.8 °C 30.19in /  1022.2hPa West 3.0mph /  4.8km/h 5.0mph /  8km/h 81% 0.00in /  0mm
20:56 44.3 °F /  6.8 °C 39.2 °F /  4 °C 30.19in /  1022.2hPa West 3.0mph /  4.8km/h 5.0mph /  8km/h 82% 0.00in /  0mm
20:57 44.3 °F /  6.8 °C 39.2 °F /  4 °C 30.19in /  1022.2hPa West 2.0mph /  3.2km/h 3.0mph /  4.8km/h 82% 0.00in /  0mm
20:59 44.3 °F /  6.8 °C 38.8 °F /  3.8 °C 30.19in /  1022.2hPa West 3.0mph /  4.8km/h 6.0mph /  9.7km/h 81% 0.00in /  0mm
21:01 44.2 °F /  6.8 °C 38.8 °F /  3.8 °C 30.19in /  1022.2hPa West 3.0mph /  4.8km/h 6.0mph /  9.7km/h 81% 0.00in /  0mm
21:05 44.2 °F /  6.8 °C 38.8 °F /  3.8 °C 30.19in /  1022.2hPa West 3.0mph /  4.8km/h 4.0mph /  6.4km/h 81% 0.00in /  0mm
21:06 44.2 °F /  6.8 °C 38.8 °F /  3.8 °C 30.19in /  1022.2hPa WNW 3.0mph /  4.8km/h 4.0mph /  6.4km/h 81% 0.00in /  0mm
21:10 44.1 °F /  6.7 °C 38.7 °F /  3.7 °C 30.19in /  1022.2hPa West 4.0mph /  6.4km/h 5.0mph /  8km/h 81% 0.00in /  0mm
21:11 44.1 °F /  6.7 °C 38.7 °F /  3.7 °C 30.19in /  1022.2hPa West 3.0mph /  4.8km/h 4.0mph /  6.4km/h 81% 0.00in /  0mm
21:16 44.1 °F /  6.7 °C 39.0 °F /  3.9 °C 30.19in /  1022.2hPa WSW 3.0mph /  4.8km/h 6.0mph /  9.7km/h 82% 0.00in /  0mm
21:17 44.1 °F /  6.7 °C 39.0 °F /  3.9 °C 30.20in /  1022.6hPa WNW 3.0mph /  4.8km/h 4.0mph /  6.4km/h 82% 0.00in /  0mm
21:21 44.0 °F /  6.7 °C 38.9 °F /  3.8 °C 30.20in /  1022.6hPa West 4.0mph /  6.4km/h 6.0mph /  9.7km/h 82% 0.00in /  0mm
21:22 44.0 °F /  6.7 °C 38.9 °F /  3.8 °C 30.20in /  1022.6hPa West 4.0mph /  6.4km/h 6.0mph /  9.7km/h 82% 0.00in /  0mm
21:27 44.0 °F /  6.7 °C 38.9 °F /  3.8 °C 30.20in /  1022.6hPa West 3.0mph /  4.8km/h 6.0mph /  9.7km/h 82% 0.00in /  0mm
21:30 43.9 °F /  6.6 °C 38.8 °F /  3.8 °C 30.20in /  1022.6hPa WNW 5.0mph /  8km/h 6.0mph /  9.7km/h 82% 0.00in /  0mm
21:32 43.9 °F /  6.6 °C 38.8 °F /  3.8 °C 30.20in /  1022.6hPa West 4.0mph /  6.4km/h 6.0mph /  9.7km/h 82% 0.00in /  0mm
21:33 43.9 °F /  6.6 °C 38.8 °F /  3.8 °C 30.20in /  1022.6hPa WNW 4.0mph /  6.4km/h 6.0mph /  9.7km/h 82% 0.00in /  0mm
21:35 43.9 °F /  6.6 °C 38.8 °F /  3.8 °C 30.20in /  1022.6hPa WNW 3.0mph /  4.8km/h 5.0mph /  8km/h 82% 0.00in /  0mm
21:36 43.9 °F /  6.6 °C 38.8 °F /  3.8 °C 30.20in /  1022.6hPa West 2.0mph /  3.2km/h 5.0mph /  8km/h 82% 0.00in /  0mm
21:41 43.8 °F /  6.6 °C 39.0 °F /  3.9 °C 30.20in /  1022.6hPa WNW 2.0mph /  3.2km/h 3.0mph /  4.8km/h 83% 0.00in /  0mm
21:46 43.7 °F /  6.5 °C 38.9 °F /  3.8 °C 30.20in /  1022.6hPa WNW 3.0mph /  4.8km/h 5.0mph /  8km/h 83% 0.00in /  0mm
21:52 43.6 °F /  6.4 °C 38.8 °F /  3.8 °C 30.20in /  1022.6hPa WNW 3.0mph /  4.8km/h 7.0mph /  11.3km/h 83% 0.00in /  0mm
21:54 43.5 °F /  6.4 °C 38.7 °F /  3.7 °C 30.20in /  1022.6hPa WNW 2.0mph /  3.2km/h 6.0mph /  9.7km/h 83% 0.00in /  0mm
21:57 43.5 °F /  6.4 °C 38.7 °F /  3.7 °C 30.20in /  1022.6hPa West 5.0mph /  8km/h 5.0mph /  8km/h 83% 0.00in /  0mm
21:58 43.5 °F /  6.4 °C 38.7 °F /  3.7 °C 30.21in /  1022.9hPa WNW 6.0mph /  9.7km/h 6.0mph /  9.7km/h 83% 0.00in /  0mm
21:59 43.5 °F /  6.4 °C 38.7 °F /  3.7 °C 30.20in /  1022.6hPa West 5.0mph /  8km/h 6.0mph /  9.7km/h 83% 0.00in /  0mm
22:03 43.4 °F /  6.3 °C 38.6 °F /  3.7 °C 30.21in /  1022.9hPa WNW 5.0mph /  8km/h 6.0mph /  9.7km/h 83% 0.00in /  0mm
22:04 43.4 °F /  6.3 °C 38.6 °F /  3.7 °C 30.21in /  1022.9hPa WNW 3.0mph /  4.8km/h 5.0mph /  8km/h 83% 0.00in /  0mm
22:09 43.3 °F /  6.3 °C 38.5 °F /  3.6 °C 30.21in /  1022.9hPa WNW 3.0mph /  4.8km/h 5.0mph /  8km/h 83% 0.00in /  0mm
22:14 43.3 °F /  6.3 °C 38.5 °F /  3.6 °C 30.21in /  1022.9hPa WNW 2.0mph /  3.2km/h 5.0mph /  8km/h 83% 0.00in /  0mm
22:15 43.3 °F /  6.3 °C 38.5 °F /  3.6 °C 30.21in /  1022.9hPa WNW 5.0mph /  8km/h 5.0mph /  8km/h 83% 0.00in /  0mm
22:20 43.2 °F /  6.2 °C 38.4 °F /  3.6 °C 30.21in /  1022.9hPa WNW 4.0mph /  6.4km/h 6.0mph /  9.7km/h 83% 0.00in /  0mm
22:25 43.2 °F /  6.2 °C 38.4 °F /  3.6 °C 30.21in /  1022.9hPa WNW 3.0mph /  4.8km/h 5.0mph /  8km/h 83% 0.00in /  0mm
22:27 43.2 °F /  6.2 °C 38.7 °F /  3.7 °C 30.21in /  1022.9hPa WNW 3.0mph /  4.8km/h 4.0mph /  6.4km/h 84% 0.00in /  0mm
22:30 43.1 °F /  6.2 °C 38.3 °F /  3.5 °C 30.21in /  1022.9hPa WNW 6.0mph /  9.7km/h 8.0mph /  12.9km/h 83% 0.00in /  0mm
22:32 43.1 °F /  6.2 °C 38.3 °F /  3.5 °C 30.20in /  1022.6hPa WNW 4.0mph /  6.4km/h 6.0mph /  9.7km/h 83% 0.00in /  0mm
22:34 43.1 °F /  6.2 °C 38.3 °F /  3.5 °C 30.20in /  1022.6hPa WNW 2.0mph /  3.2km/h 6.0mph /  9.7km/h 83% 0.00in /  0mm
22:36 43.1 °F /  6.2 °C 38.3 °F /  3.5 °C 30.20in /  1022.6hPa NW 3.0mph /  4.8km/h 5.0mph /  8km/h 83% 0.00in /  0mm
22:37 43.1 °F /  6.2 °C 38.3 °F /  3.5 °C 30.20in /  1022.6hPa WNW 3.0mph /  4.8km/h 5.0mph /  8km/h 83% 0.00in /  0mm
22:41 43.1 °F /  6.2 °C 38.3 °F /  3.5 °C 30.20in /  1022.6hPa West 5.0mph /  8km/h 6.0mph /  9.7km/h 83% 0.00in /  0mm
22:42 43.1 °F /  6.2 °C 38.3 °F /  3.5 °C 30.20in /  1022.6hPa WNW 3.0mph /  4.8km/h 6.0mph /  9.7km/h 83% 0.00in /  0mm
22:48 43.0 °F /  6.1 °C 38.5 °F /  3.6 °C 30.21in /  1022.9hPa WNW 2.0mph /  3.2km/h 5.0mph /  8km/h 84% 0.00in /  0mm
22:53 43.0 °F /  6.1 °C 38.2 °F /  3.4 °C 30.21in /  1022.9hPa WNW 3.0mph /  4.8km/h 6.0mph /  9.7km/h 83% 0.00in /  0mm
22:54 43.0 °F /  6.1 °C 38.5 °F /  3.6 °C 30.21in /  1022.9hPa WNW 3.0mph /  4.8km/h 6.0mph /  9.7km/h 84% 0.00in /  0mm
22:58 42.9 °F /  6.1 °C 38.4 °F /  3.6 °C 30.21in /  1022.9hPa NW 2.0mph /  3.2km/h 4.0mph /  6.4km/h 84% 0.00in /  0mm
22:59 42.9 °F /  6.1 °C 38.4 °F /  3.6 °C 30.21in /  1022.9hPa WNW 3.0mph /  4.8km/h 4.0mph /  6.4km/h 84% 0.00in /  0mm
23:03 42.9 °F /  6.1 °C 38.4 °F /  3.6 °C 30.22in /  1023.2hPa West 3.0mph /  4.8km/h 4.0mph /  6.4km/h 84% 0.00in /  0mm
23:04 42.9 °F /  6.1 °C 38.4 °F /  3.6 °C 30.21in /  1022.9hPa WNW 2.0mph /  3.2km/h 4.0mph /  6.4km/h 84% 0.00in /  0mm
23:09 42.9 °F /  6.1 °C 38.4 °F /  3.6 °C 30.22in /  1023.2hPa NW 3.0mph /  4.8km/h 5.0mph /  8km/h 84% 0.00in /  0mm
23:14 42.9 °F /  6.1 °C 38.4 °F /  3.6 °C 30.22in /  1023.2hPa WNW 2.0mph /  3.2km/h 3.0mph /  4.8km/h 84% 0.00in /  0mm
23:15 42.9 °F /  6.1 °C 38.4 °F /  3.6 °C 30.22in /  1023.2hPa WNW 2.0mph /  3.2km/h 3.0mph /  4.8km/h 84% 0.00in /  0mm
23:19 42.9 °F /  6.1 °C 38.4 °F /  3.6 °C 30.22in /  1023.2hPa WNW 2.0mph /  3.2km/h 3.0mph /  4.8km/h 84% 0.00in /  0mm
23:24 42.8 °F /  6 °C 38.6 °F /  3.7 °C 30.22in /  1023.2hPa WNW 1.0mph /  1.6km/h 2.0mph /  3.2km/h 85% 0.00in /  0mm
23:30 42.8 °F /  6 °C 38.3 °F /  3.5 °C 30.22in /  1023.2hPa WNW 1.0mph /  1.6km/h 4.0mph /  6.4km/h 84% 0.00in /  0mm
23:31 42.8 °F /  6 °C 38.3 °F /  3.5 °C 30.22in /  1023.2hPa WNW 1.0mph /  1.6km/h 4.0mph /  6.4km/h 84% 0.00in /  0mm
23:35 42.8 °F /  6 °C 38.3 °F /  3.5 °C 30.22in /  1023.2hPa WNW 2.0mph /  3.2km/h 3.0mph /  4.8km/h 84% 0.00in /  0mm
23:37 42.8 °F /  6 °C 38.6 °F /  3.7 °C 30.22in /  1023.2hPa WNW 2.0mph /  3.2km/h 3.0mph /  4.8km/h 85% 0.00in /  0mm
23:40 42.8 °F /  6 °C 38.3 °F /  3.5 °C 30.22in /  1023.2hPa WNW 3.0mph /  4.8km/h 5.0mph /  8km/h 84% 0.00in /  0mm
23:41 42.8 °F /  6 °C 38.3 °F /  3.5 °C 30.22in /  1023.2hPa WNW 3.0mph /  4.8km/h 5.0mph /  8km/h 84% 0.00in /  0mm
23:42 42.8 °F /  6 °C 38.3 °F /  3.5 °C 30.22in /  1023.2hPa WNW 3.0mph /  4.8km/h 6.0mph /  9.7km/h 84% 0.00in /  0mm
23:47 42.8 °F /  6 °C 38.3 °F /  3.5 °C 30.22in /  1023.2hPa WNW 2.0mph /  3.2km/h 4.0mph /  6.4km/h 84% 0.00in /  0mm
23:52 42.8 °F /  6 °C 38.3 °F /  3.5 °C 30.22in /  1023.2hPa WNW 5.0mph /  8km/h 5.0mph /  8km/h 84% 0.00in /  0mm
23:54 42.8 °F /  6 °C 38.3 °F /  3.5 °C 30.22in /  1023.2hPa NW 2.0mph /  3.2km/h 5.0mph /  8km/h 84% 0.00in /  0mm
23:57 42.8 °F /  6 °C 38.3 °F /  3.5 °C 30.22in /  1023.2hPa WNW 3.0mph /  4.8km/h 4.0mph /  6.4km/h 84% 0.00in /  0mm
23:58 42.8 °F /  6 °C 38.3 °F /  3.5 °C 30.22in /  1023.2hPa WNW 2.0mph /  3.2km/h 4.0mph /  6.4km/h 84% 0.00in /  0mm
Compliments of Weather Underground